PWSweather.com
Personal Weather Stations
Station Observations
KMILAPEE3
Lapeer Michigan, Lapeer, MI 48446

Lapeer MichiganLapeer, MI 48446

Lat: 43.057, Lon: -83.362

Elevation: 897

Station Type: Oregon Scientific WMR-968

Latest ConditionsUpdated 10:48:11 AM EDT Thursday, Aug 25, 2016
Currently Today's Max Today's Min Today's Average
Temperature 77.0°F25.0°C 77.0°F25.0°C 70.9°F21.6°C 72.2°F22.3°C
Dew Point 77.0°F25.0°C 77.0°F25.0°C 67.2°F19.6°C 71.2°F21.8°C
Winds 6.3 mph SW10.1 kmh SW 6.9 mph WSW11.1 kmh WSW - 1.9 mph 3.1 kmh
Wind Gusts 11.7 mph18.8 kmh 12.0 mph19.3 kmh - -
Humidity 100% 100% 86% 97%
Pressure 29.00 in982.1 mb 29.03 in983.1 mb 28.97 in981.0 mb -
Hour Temp Dew Point Humidity Winds Wind Gusts Pressure Precip Precip Rate Daily Precip Total
10:48 AM 77.0°F25.0°C 77.0°F25.0°C 100% 6.3 mph SW10.1 kmh SW 11.7 mph18.8 kmh 29.00 in982.1 mb 0.00 in0.0 mm 0.00 in0.0 mm 0.00 in0.0 mm
10:47 AM 77.0°F25.0°C 77.0°F25.0°C 100% 5.9 mph SW9.5 kmh SW 11.7 mph18.8 kmh 29.00 in982.1 mb 0.00 in0.0 mm 0.00 in0.0 mm 0.00 in0.0 mm
10:46 AM 76.8°F24.9°C 76.8°F24.9°C 100% 4.6 mph WSW7.4 kmh WSW 11.7 mph18.8 kmh 29.00 in982.1 mb 0.00 in0.0 mm 0.00 in0.0 mm 0.00 in0.0 mm
10:45 AM 76.8°F24.9°C 76.8°F24.9°C 100% 4.1 mph WSW6.6 kmh WSW 10.4 mph16.7 kmh 29.00 in982.1 mb 0.00 in0.0 mm 0.00 in0.0 mm 0.00 in0.0 mm
10:44 AM 76.6°F24.8°C 76.6°F24.8°C 100% 4.1 mph W6.6 kmh W 10.4 mph16.7 kmh 29.00 in982.1 mb 0.00 in0.0 mm 0.00 in0.0 mm 0.00 in0.0 mm
10:43 AM 76.5°F24.7°C 76.5°F24.7°C 100% 3.7 mph W6.0 kmh W 11.7 mph18.8 kmh 29.00 in982.1 mb 0.00 in0.0 mm 0.00 in0.0 mm 0.00 in0.0 mm
10:42 AM 76.5°F24.7°C 76.5°F24.7°C 100% 4.1 mph WSW6.6 kmh WSW 11.7 mph18.8 kmh 29.00 in982.1 mb 0.00 in0.0 mm 0.00 in0.0 mm 0.00 in0.0 mm
10:41 AM 76.3°F24.6°C 76.3°F24.6°C 100% 4.8 mph WSW7.7 kmh WSW 11.7 mph18.8 kmh 29.00 in982.1 mb 0.00 in0.0 mm 0.00 in0.0 mm 0.00 in0.0 mm
10:40 AM 76.1°F24.5°C 76.1°F24.5°C 100% 6.1 mph W9.8 kmh W 11.7 mph18.8 kmh 29.00 in982.1 mb 0.00 in0.0 mm 0.00 in0.0 mm 0.00 in0.0 mm
10:39 AM 76.1°F24.5°C 76.1°F24.5°C 100% 6.4 mph W10.3 kmh W 11.7 mph18.8 kmh 29.00 in982.1 mb 0.00 in0.0 mm 0.00 in0.0 mm 0.00 in0.0 mm
10:38 AM 75.7°F24.3°C 75.7°F24.3°C 100% 6.4 mph WSW10.3 kmh WSW 11.7 mph18.8 kmh 29.00 in982.1 mb 0.00 in0.0 mm 0.00 in0.0 mm 0.00 in0.0 mm
10:37 AM 75.7°F24.3°C 75.7°F24.3°C 100% 6.2 mph W10.0 kmh W 11.7 mph18.8 kmh 29.00 in982.1 mb 0.00 in0.0 mm 0.00 in0.0 mm 0.00 in0.0 mm
10:36 AM 75.6°F24.2°C 75.6°F24.2°C 100% 6.3 mph WSW10.1 kmh WSW 11.7 mph18.8 kmh 29.00 in982.1 mb 0.00 in0.0 mm 0.00 in0.0 mm 0.00 in0.0 mm
10:35 AM 75.4°F24.1°C 75.4°F24.1°C 100% 6.6 mph WSW10.6 kmh WSW 11.7 mph18.8 kmh 29.00 in982.1 mb 0.00 in0.0 mm 0.00 in0.0 mm 0.00 in0.0 mm
10:34 AM 75.2°F24.0°C 75.2°F24.0°C 100% 6.9 mph W11.1 kmh W 11.7 mph18.8 kmh 29.00 in982.1 mb 0.00 in0.0 mm 0.00 in0.0 mm 0.00 in0.0 mm
10:33 AM 75.2°F24.0°C 75.2°F24.0°C 100% 6.8 mph WSW10.9 kmh WSW 11.7 mph18.8 kmh 29.00 in982.1 mb 0.00 in0.0 mm 0.00 in0.0 mm 0.00 in0.0 mm
10:32 AM 75.2°F24.0°C 75.2°F24.0°C 100% 5.9 mph W9.5 kmh W 8.4 mph13.5 kmh 29.00 in982.1 mb 0.00 in0.0 mm 0.00 in0.0 mm 0.00 in0.0 mm
10:31 AM 75.2°F24.0°C 75.2°F24.0°C 100% 5.1 mph W8.2 kmh W 8.4 mph13.5 kmh 29.00 in982.1 mb 0.00 in0.0 mm 0.00 in0.0 mm 0.00 in0.0 mm
10:30 AM 75.2°F24.0°C 75.2°F24.0°C 100% 3.9 mph WSW6.3 kmh WSW 8.4 mph13.5 kmh 29.00 in982.1 mb 0.00 in0.0 mm 0.00 in0.0 mm 0.00 in0.0 mm
10:29 AM 75.2°F24.0°C 75.2°F24.0°C 100% 3.5 mph WSW5.6 kmh WSW 7.8 mph12.6 kmh 29.00 in982.1 mb 0.00 in0.0 mm 0.00 in0.0 mm 0.00 in0.0 mm
10:28 AM 75.0°F23.9°C 75.0°F23.9°C 100% 4.3 mph W6.9 kmh W 7.8 mph12.6 kmh 29.00 in982.1 mb 0.00 in0.0 mm 0.00 in0.0 mm 0.00 in0.0 mm
10:27 AM 75.2°F24.0°C 75.2°F24.0°C 100% 4.1 mph WSW6.6 kmh WSW 7.8 mph12.6 kmh 29.00 in982.1 mb 0.00 in0.0 mm 0.00 in0.0 mm 0.00 in0.0 mm
10:26 AM 75.0°F23.9°C 75.0°F23.9°C 100% 3.3 mph WSW5.3 kmh WSW 7.8 mph12.6 kmh 29.00 in982.1 mb 0.00 in0.0 mm 0.00 in0.0 mm 0.00 in0.0 mm
10:25 AM 75.0°F23.9°C 75.0°F23.9°C 100% 3.4 mph WSW5.5 kmh WSW 8.4 mph13.5 kmh 29.00 in982.1 mb 0.00 in0.0 mm 0.00 in0.0 mm 0.00 in0.0 mm
10:24 AM 74.8°F23.8°C 74.8°F23.8°C 100% 3.7 mph WSW6.0 kmh WSW 8.4 mph13.5 kmh 29.00 in982.1 mb 0.00 in0.0 mm 0.00 in0.0 mm 0.00 in0.0 mm
10:23 AM 74.8°F23.8°C 74.8°F23.8°C 100% 3.7 mph WSW6.0 kmh WSW 10.4 mph16.7 kmh 29.00 in982.1 mb 0.00 in0.0 mm 0.00 in0.0 mm 0.00 in0.0 mm
10:22 AM 74.8°F23.8°C 74.8°F23.8°C 100% Calm Calm 10.4 mph16.7 kmh 29.00 in982.1 mb 0.00 in0.0 mm 0.00 in0.0 mm 0.00 in0.0 mm
10:21 AM 74.8°F23.8°C 74.8°F23.8°C 100% Calm Calm 10.4 mph16.7 kmh 29.00 in982.1 mb 0.00 in0.0 mm 0.00 in0.0 mm 0.00 in0.0 mm
10:20 AM 74.8°F23.8°C 74.8°F23.8°C 100% Calm Calm 10.4 mph16.7 kmh 29.00 in982.1 mb 0.00 in0.0 mm 0.00 in0.0 mm 0.00 in0.0 mm
10:19 AM 74.8°F23.8°C 74.8°F23.8°C 100% 4.3 mph WSW6.9 kmh WSW 10.4 mph16.7 kmh 29.00 in982.1 mb 0.00 in0.0 mm 0.00 in0.0 mm 0.00 in0.0 mm
10:18 AM 74.7°F23.7°C 74.7°F23.7°C 100% 4.5 mph WSW7.2 kmh WSW 10.4 mph16.7 kmh 29.00 in982.1 mb 0.00 in0.0 mm 0.00 in0.0 mm 0.00 in0.0 mm
10:17 AM 74.7°F23.7°C 74.7°F23.7°C 100% 4.6 mph W7.4 kmh W 10.4 mph16.7 kmh 29.00 in982.1 mb 0.00 in0.0 mm 0.00 in0.0 mm 0.00 in0.0 mm
10:16 AM 74.7°F23.7°C 74.7°F23.7°C 100% 5.4 mph WSW8.7 kmh WSW 10.4 mph16.7 kmh 29.00 in982.1 mb 0.00 in0.0 mm 0.00 in0.0 mm 0.00 in0.0 mm
10:15 AM 74.5°F23.6°C 74.5°F23.6°C 100% 4.2 mph WSW6.8 kmh WSW 10.4 mph16.7 kmh 29.00 in982.1 mb 0.00 in0.0 mm 0.00 in0.0 mm 0.00 in0.0 mm
10:14 AM 74.5°F23.6°C 74.5°F23.6°C 100% 3.7 mph WSW6.0 kmh WSW 10.4 mph16.7 kmh 29.00 in982.1 mb 0.00 in0.0 mm 0.00 in0.0 mm 0.00 in0.0 mm
10:13 AM 74.5°F23.6°C 74.5°F23.6°C 100% 3.7 mph WSW6.0 kmh WSW 8.4 mph13.5 kmh 29.00 in982.1 mb 0.00 in0.0 mm 0.00 in0.0 mm 0.00 in0.0 mm
10:12 AM 74.3°F23.5°C 74.3°F23.5°C 100% Calm Calm 8.4 mph13.5 kmh 29.00 in982.1 mb 0.00 in0.0 mm 0.00 in0.0 mm 0.00 in0.0 mm
10:11 AM 74.3°F23.5°C 74.3°F23.5°C 100% Calm Calm 8.4 mph13.5 kmh 29.00 in982.1 mb 0.00 in0.0 mm 0.00 in0.0 mm 0.00 in0.0 mm
10:10 AM 74.3°F23.5°C 74.3°F23.5°C 100% 4.9 mph W7.9 kmh W 8.4 mph13.5 kmh 29.00 in982.1 mb 0.00 in0.0 mm 0.00 in0.0 mm 0.00 in0.0 mm
10:09 AM 74.3°F23.5°C 74.3°F23.5°C 100% 5.1 mph W8.2 kmh W 8.4 mph13.5 kmh 29.00 in982.1 mb 0.00 in0.0 mm 0.00 in0.0 mm 0.00 in0.0 mm
10:08 AM 74.3°F23.5°C 74.3°F23.5°C 100% 5.3 mph W8.5 kmh W 8.4 mph13.5 kmh 29.00 in982.1 mb 0.00 in0.0 mm 0.00 in0.0 mm 0.00 in0.0 mm
10:07 AM 74.3°F23.5°C 74.3°F23.5°C 100% 4.7 mph W7.6 kmh W 8.4 mph13.5 kmh 29.00 in982.1 mb 0.00 in0.0 mm 0.00 in0.0 mm 0.00 in0.0 mm
10:06 AM 74.3°F23.5°C 74.3°F23.5°C 100% 3.0 mph W4.8 kmh W 8.4 mph13.5 kmh 29.00 in982.1 mb 0.00 in0.0 mm 0.00 in0.0 mm 0.00 in0.0 mm
10:05 AM 74.3°F23.5°C 74.3°F23.5°C 100% 4.3 mph WSW6.9 kmh WSW 5.8 mph9.3 kmh 29.00 in982.1 mb 0.00 in0.0 mm 0.00 in0.0 mm 0.00 in0.0 mm
10:04 AM 74.3°F23.5°C 74.3°F23.5°C 100% 4.0 mph WSW6.4 kmh WSW 5.8 mph9.3 kmh 29.00 in982.1 mb 0.00 in0.0 mm 0.00 in0.0 mm 0.00 in0.0 mm
10:03 AM 74.1°F23.4°C 74.1°F23.4°C 100% 3.8 mph WSW6.1 kmh WSW 5.8 mph9.3 kmh 29.00 in982.1 mb 0.00 in0.0 mm 0.00 in0.0 mm 0.00 in0.0 mm
10:02 AM 74.1°F23.4°C 74.1°F23.4°C 100% 3.3 mph W5.3 kmh W 7.1 mph11.4 kmh 29.00 in982.1 mb 0.00 in0.0 mm 0.00 in0.0 mm 0.00 in0.0 mm
10:01 AM 74.1°F23.4°C 74.1°F23.4°C 100% 3.0 mph W4.8 kmh W 7.1 mph11.4 kmh 29.00 in982.1 mb 0.00 in0.0 mm 0.00 in0.0 mm 0.00 in0.0 mm
10:00 AM 74.1°F23.4°C 74.1°F23.4°C 100% Calm Calm 7.1 mph11.4 kmh 29.00 in982.1 mb 0.00 in0.0 mm 0.00 in0.0 mm 0.00 in0.0 mm
09:59 AM 74.1°F23.4°C 74.1°F23.4°C 100% Calm Calm 7.1 mph11.4 kmh 29.00 in982.1 mb 0.00 in0.0 mm 0.00 in0.0 mm 0.00 in0.0 mm
09:58 AM 74.1°F23.4°C 74.1°F23.4°C 100% Calm Calm 7.1 mph11.4 kmh 29.00 in982.1 mb 0.00 in0.0 mm 0.00 in0.0 mm 0.00 in0.0 mm
09:57 AM 73.9°F23.3°C 73.9°F23.3°C 100% 3.7 mph W6.0 kmh W 7.1 mph11.4 kmh 29.00 in982.1 mb 0.00 in0.0 mm 0.00 in0.0 mm 0.00 in0.0 mm
09:56 AM 73.9°F23.3°C 73.9°F23.3°C 100% 3.7 mph W6.0 kmh W 7.1 mph11.4 kmh 29.00 in982.1 mb 0.00 in0.0 mm 0.00 in0.0 mm 0.00 in0.0 mm
09:55 AM 73.9°F23.3°C 73.9°F23.3°C 100% 3.9 mph W6.3 kmh W 7.1 mph11.4 kmh 29.00 in982.1 mb 0.00 in0.0 mm 0.00 in0.0 mm 0.00 in0.0 mm
09:54 AM 73.9°F23.3°C 73.9°F23.3°C 100% 3.5 mph W5.6 kmh W 7.1 mph11.4 kmh 29.00 in982.1 mb 0.00 in0.0 mm 0.00 in0.0 mm 0.00 in0.0 mm
09:53 AM 73.9°F23.3°C 73.9°F23.3°C 100% 3.0 mph WSW4.8 kmh WSW 7.1 mph11.4 kmh 29.00 in982.1 mb 0.00 in0.0 mm 0.00 in0.0 mm 0.00 in0.0 mm
09:52 AM 73.9°F23.3°C 73.9°F23.3°C 100% Calm Calm 5.8 mph9.3 kmh 29.00 in982.1 mb 0.00 in0.0 mm 0.00 in0.0 mm 0.00 in0.0 mm
09:51 AM 73.9°F23.3°C 73.9°F23.3°C 100% Calm Calm 5.8 mph9.3 kmh 29.00 in982.1 mb 0.00 in0.0 mm 0.00 in0.0 mm 0.00 in0.0 mm
09:50 AM 73.9°F23.3°C 73.9°F23.3°C 100% 3.0 mph W4.8 kmh W 8.4 mph13.5 kmh 29.00 in982.1 mb 0.00 in0.0 mm 0.00 in0.0 mm 0.00 in0.0 mm
09:49 AM 73.9°F23.3°C 73.9°F23.3°C 100% 3.0 mph W4.8 kmh W 8.4 mph13.5 kmh 29.00 in982.1 mb 0.00 in0.0 mm 0.00 in0.0 mm 0.00 in0.0 mm
09:48 AM 73.9°F23.3°C 73.9°F23.3°C 100% Calm Calm 8.4 mph13.5 kmh 29.00 in982.1 mb 0.00 in0.0 mm 0.00 in0.0 mm 0.00 in0.0 mm
09:47 AM 73.9°F23.3°C 73.9°F23.3°C 100% Calm Calm 8.4 mph13.5 kmh 29.00 in982.1 mb 0.00 in0.0 mm 0.00 in0.0 mm 0.00 in0.0 mm
09:46 AM 73.9°F23.3°C 73.9°F23.3°C 100% Calm Calm 8.4 mph13.5 kmh 29.00 in982.1 mb 0.00 in0.0 mm 0.00 in0.0 mm 0.00 in0.0 mm
09:45 AM 73.9°F23.3°C 73.9°F23.3°C 100% Calm Calm 8.4 mph13.5 kmh 29.00 in982.1 mb 0.00 in0.0 mm 0.00 in0.0 mm 0.00 in0.0 mm
09:44 AM 73.9°F23.3°C 73.9°F23.3°C 100% Calm Calm 8.4 mph13.5 kmh 29.00 in982.1 mb 0.00 in0.0 mm 0.00 in0.0 mm 0.00 in0.0 mm
09:43 AM 73.9°F23.3°C 73.9°F23.3°C 100% 4.3 mph SW6.9 kmh SW 8.4 mph13.5 kmh 29.00 in982.1 mb 0.00 in0.0 mm 0.00 in0.0 mm 0.00 in0.0 mm
09:42 AM 73.9°F23.3°C 73.9°F23.3°C 100% 4.3 mph SW6.9 kmh SW 8.4 mph13.5 kmh 29.00 in982.1 mb 0.00 in0.0 mm 0.00 in0.0 mm 0.00 in0.0 mm
09:41 AM 73.9°F23.3°C 73.9°F23.3°C 100% Calm Calm 8.4 mph13.5 kmh 29.00 in982.1 mb 0.00 in0.0 mm 0.00 in0.0 mm 0.00 in0.0 mm
09:40 AM 73.9°F23.3°C 73.9°F23.3°C 100% Calm Calm 5.2 mph8.4 kmh 29.00 in982.1 mb 0.00 in0.0 mm 0.00 in0.0 mm 0.00 in0.0 mm
09:39 AM 73.9°F23.3°C 73.9°F23.3°C 100% Calm Calm 5.2 mph8.4 kmh 29.00 in982.1 mb 0.00 in0.0 mm 0.00 in0.0 mm 0.00 in0.0 mm
09:38 AM 73.9°F23.3°C 73.9°F23.3°C 100% 3.0 mph WSW4.8 kmh WSW 5.2 mph8.4 kmh 29.00 in982.1 mb 0.00 in0.0 mm 0.00 in0.0 mm 0.00 in0.0 mm
09:37 AM 73.9°F23.3°C 73.9°F23.3°C 100% 3.0 mph WSW4.8 kmh WSW 5.2 mph8.4 kmh 29.00 in982.1 mb 0.00 in0.0 mm 0.00 in0.0 mm 0.00 in0.0 mm
09:36 AM 73.9°F23.3°C 73.9°F23.3°C 100% 3.0 mph WSW4.8 kmh WSW 5.8 mph9.3 kmh 29.00 in982.1 mb 0.00 in0.0 mm 0.00 in0.0 mm 0.00 in0.0 mm
09:35 AM 73.9°F23.3°C 73.9°F23.3°C 100% 3.0 mph WSW4.8 kmh WSW 5.8 mph9.3 kmh 29.00 in982.1 mb 0.00 in0.0 mm 0.00 in0.0 mm 0.00 in0.0 mm
09:34 AM 73.9°F23.3°C 73.9°F23.3°C 100% Calm Calm 5.8 mph9.3 kmh 29.00 in982.1 mb 0.00 in0.0 mm 0.00 in0.0 mm 0.00 in0.0 mm
09:33 AM 73.9°F23.3°C 73.9°F23.3°C 100% Calm Calm 5.8 mph9.3 kmh 29.00 in982.1 mb 0.00 in0.0 mm 0.00 in0.0 mm 0.00 in0.0 mm
09:32 AM 73.9°F23.3°C 73.9°F23.3°C 100% Calm Calm 5.8 mph9.3 kmh 29.00 in982.1 mb 0.00 in0.0 mm 0.00 in0.0 mm 0.00 in0.0 mm
09:31 AM 73.9°F23.3°C 73.9°F23.3°C 100% Calm Calm 5.8 mph9.3 kmh 29.00 in982.1 mb 0.00 in0.0 mm 0.00 in0.0 mm 0.00 in0.0 mm
09:30 AM 73.9°F23.3°C 73.9°F23.3°C 100% Calm Calm 5.8 mph9.3 kmh 29.03 in983.1 mb 0.00 in0.0 mm 0.00 in0.0 mm 0.00 in0.0 mm
09:29 AM 73.9°F23.3°C 73.9°F23.3°C 100% Calm Calm 5.8 mph9.3 kmh 29.03 in983.1 mb 0.00 in0.0 mm 0.00 in0.0 mm 0.00 in0.0 mm
09:28 AM 73.9°F23.3°C 73.9°F23.3°C 100% Calm Calm 5.8 mph9.3 kmh 29.03 in983.1 mb 0.00 in0.0 mm 0.00 in0.0 mm 0.00 in0.0 mm
09:27 AM 73.9°F23.3°C 73.9°F23.3°C 100% 3.7 mph W6.0 kmh W 5.8 mph9.3 kmh 29.03 in983.1 mb 0.00 in0.0 mm 0.00 in0.0 mm 0.00 in0.0 mm
09:26 AM 73.9°F23.3°C 73.9°F23.3°C 100% 3.7 mph W6.0 kmh W 5.8 mph9.3 kmh 29.03 in983.1 mb 0.00 in0.0 mm 0.00 in0.0 mm 0.00 in0.0 mm
09:25 AM 73.9°F23.3°C 73.9°F23.3°C 100% 3.7 mph W6.0 kmh W 5.2 mph8.4 kmh 29.03 in983.1 mb 0.00 in0.0 mm 0.00 in0.0 mm 0.00 in0.0 mm
09:24 AM 73.9°F23.3°C 73.9°F23.3°C 100% Calm Calm 5.2 mph8.4 kmh 29.03 in983.1 mb 0.00 in0.0 mm 0.00 in0.0 mm 0.00 in0.0 mm
09:23 AM 73.9°F23.3°C 73.9°F23.3°C 100% Calm Calm 5.2 mph8.4 kmh 29.03 in983.1 mb 0.00 in0.0 mm 0.00 in0.0 mm 0.00 in0.0 mm
09:22 AM 73.9°F23.3°C 73.9°F23.3°C 100% Calm Calm 5.2 mph8.4 kmh 29.03 in983.1 mb 0.00 in0.0 mm 0.00 in0.0 mm 0.00 in0.0 mm
09:21 AM 73.9°F23.3°C 73.9°F23.3°C 100% Calm Calm 5.8 mph9.3 kmh 29.03 in983.1 mb 0.00 in0.0 mm 0.00 in0.0 mm 0.00 in0.0 mm
09:20 AM 73.9°F23.3°C 73.9°F23.3°C 100% 3.0 mph WSW4.8 kmh WSW 5.8 mph9.3 kmh 29.03 in983.1 mb 0.00 in0.0 mm 0.00 in0.0 mm 0.00 in0.0 mm
09:19 AM 73.9°F23.3°C 73.9°F23.3°C 100% 3.0 mph WSW4.8 kmh WSW 5.8 mph9.3 kmh 29.03 in983.1 mb 0.00 in0.0 mm 0.00 in0.0 mm 0.00 in0.0 mm
09:18 AM 73.9°F23.3°C 73.9°F23.3°C 100% 3.0 mph WSW4.8 kmh WSW 7.1 mph11.4 kmh 29.03 in983.1 mb 0.00 in0.0 mm 0.00 in0.0 mm 0.00 in0.0 mm
09:17 AM 73.9°F23.3°C 73.9°F23.3°C 100% Calm Calm 7.8 mph12.6 kmh 29.03 in983.1 mb 0.00 in0.0 mm 0.00 in0.0 mm 0.00 in0.0 mm
09:16 AM 73.9°F23.3°C 73.9°F23.3°C 100% Calm Calm 7.8 mph12.6 kmh 29.03 in983.1 mb 0.00 in0.0 mm 0.00 in0.0 mm 0.00 in0.0 mm
09:15 AM 73.9°F23.3°C 73.9°F23.3°C 100% Calm Calm 7.8 mph12.6 kmh 29.03 in983.1 mb 0.00 in0.0 mm 0.00 in0.0 mm 0.00 in0.0 mm
09:14 AM 73.9°F23.3°C 73.9°F23.3°C 100% Calm Calm 7.8 mph12.6 kmh 29.03 in983.1 mb 0.00 in0.0 mm 0.00 in0.0 mm 0.00 in0.0 mm
09:13 AM 73.9°F23.3°C 73.9°F23.3°C 100% 3.0 mph SW4.8 kmh SW 7.8 mph12.6 kmh 29.03 in983.1 mb 0.00 in0.0 mm 0.00 in0.0 mm 0.00 in0.0 mm
09:12 AM 73.9°F23.3°C 73.9°F23.3°C 100% 3.4 mph SW5.5 kmh SW 7.8 mph12.6 kmh 29.03 in983.1 mb 0.00 in0.0 mm 0.00 in0.0 mm 0.00 in0.0 mm
09:11 AM 73.9°F23.3°C 73.9°F23.3°C 100% 4.1 mph SW6.6 kmh SW 7.8 mph12.6 kmh 29.03 in983.1 mb 0.00 in0.0 mm 0.00 in0.0 mm 0.00 in0.0 mm
09:10 AM 73.9°F23.3°C 73.9°F23.3°C 100% 4.6 mph SW7.4 kmh SW 8.4 mph13.5 kmh 29.03 in983.1 mb 0.00 in0.0 mm 0.00 in0.0 mm 0.00 in0.0 mm
09:09 AM 73.9°F23.3°C 73.9°F23.3°C 100% 4.5 mph WSW7.2 kmh WSW 8.4 mph13.5 kmh 29.03 in983.1 mb 0.00 in0.0 mm 0.00 in0.0 mm 0.00 in0.0 mm
09:08 AM 74.1°F23.4°C 74.1°F23.4°C 100% 4.9 mph W7.9 kmh W 9.1 mph14.6 kmh 29.03 in983.1 mb 0.00 in0.0 mm 0.00 in0.0 mm 0.00 in0.0 mm
09:07 AM 74.1°F23.4°C 74.1°F23.4°C 100% 4.9 mph WSW7.9 kmh WSW 9.1 mph14.6 kmh 29.03 in983.1 mb 0.00 in0.0 mm 0.00 in0.0 mm 0.00 in0.0 mm
09:06 AM 74.1°F23.4°C 74.1°F23.4°C 100% 4.3 mph WSW6.9 kmh WSW 11.0 mph17.7 kmh 29.03 in983.1 mb 0.00 in0.0 mm 0.00 in0.0 mm 0.00 in0.0 mm
09:05 AM 74.1°F23.4°C 74.1°F23.4°C 100% 3.7 mph WSW6.0 kmh WSW 11.0 mph17.7 kmh 29.03 in983.1 mb 0.00 in0.0 mm 0.00 in0.0 mm 0.00 in0.0 mm
09:04 AM 74.1°F23.4°C 74.1°F23.4°C 100% 3.7 mph WSW6.0 kmh WSW 11.0 mph17.7 kmh 29.03 in983.1 mb 0.00 in0.0 mm 0.00 in0.0 mm 0.00 in0.0 mm
09:03 AM 74.1°F23.4°C 74.1°F23.4°C 100% 3.4 mph WSW5.5 kmh WSW 11.0 mph17.7 kmh 29.03 in983.1 mb 0.00 in0.0 mm 0.00 in0.0 mm 0.00 in0.0 mm
09:02 AM 74.1°F23.4°C 74.1°F23.4°C 100% 4.2 mph WSW6.8 kmh WSW 11.0 mph17.7 kmh 29.03 in983.1 mb 0.00 in0.0 mm 0.00 in0.0 mm 0.00 in0.0 mm
09:01 AM 74.1°F23.4°C 74.1°F23.4°C 100% 4.9 mph WSW7.9 kmh WSW 11.0 mph17.7 kmh 29.03 in983.1 mb 0.00 in0.0 mm 0.00 in0.0 mm 0.00 in0.0 mm
09:00 AM 74.1°F23.4°C 74.1°F23.4°C 100% 5.1 mph WSW8.2 kmh WSW 11.0 mph17.7 kmh 29.03 in983.1 mb 0.00 in0.0 mm 0.00 in0.0 mm 0.00 in0.0 mm
08:59 AM 74.1°F23.4°C 74.1°F23.4°C 100% 5.5 mph WSW8.9 kmh WSW 11.0 mph17.7 kmh 29.03 in983.1 mb 0.00 in0.0 mm 0.00 in0.0 mm 0.00 in0.0 mm
08:58 AM 74.1°F23.4°C 74.1°F23.4°C 100% 6.1 mph WSW9.8 kmh WSW 11.0 mph17.7 kmh 29.03 in983.1 mb 0.00 in0.0 mm 0.00 in0.0 mm 0.00 in0.0 mm
08:57 AM 74.1°F23.4°C 74.1°F23.4°C 100% 6.4 mph WSW10.3 kmh WSW 11.0 mph17.7 kmh 29.03 in983.1 mb 0.00 in0.0 mm 0.00 in0.0 mm 0.00 in0.0 mm
08:56 AM 73.9°F23.3°C 73.9°F23.3°C 100% 5.4 mph WSW8.7 kmh WSW 11.0 mph17.7 kmh 29.03 in983.1 mb 0.00 in0.0 mm 0.00 in0.0 mm 0.00 in0.0 mm
08:55 AM 73.9°F23.3°C 73.9°F23.3°C 100% 5.4 mph WSW8.7 kmh WSW 9.1 mph14.6 kmh 29.03 in983.1 mb 0.00 in0.0 mm 0.00 in0.0 mm 0.00 in0.0 mm
08:54 AM 73.9°F23.3°C 73.9°F23.3°C 100% 5.1 mph WSW8.2 kmh WSW 9.1 mph14.6 kmh 29.03 in983.1 mb 0.00 in0.0 mm 0.00 in0.0 mm 0.00 in0.0 mm
08:53 AM 73.9°F23.3°C 73.9°F23.3°C 100% 3.8 mph WSW6.1 kmh WSW 9.1 mph14.6 kmh 29.03 in983.1 mb 0.00 in0.0 mm 0.00 in0.0 mm 0.00 in0.0 mm
08:52 AM 73.9°F23.3°C 73.9°F23.3°C 100% 3.8 mph WSW6.1 kmh WSW 12.0 mph19.3 kmh 29.03 in983.1 mb 0.00 in0.0 mm 0.00 in0.0 mm 0.00 in0.0 mm
08:51 AM 73.9°F23.3°C 73.9°F23.3°C 100% 3.3 mph WSW5.3 kmh WSW 12.0 mph19.3 kmh 29.03 in983.1 mb 0.00 in0.0 mm 0.00 in0.0 mm 0.00 in0.0 mm
08:50 AM 73.9°F23.3°C 73.9°F23.3°C 100% 3.6 mph WSW5.8 kmh WSW 12.0 mph19.3 kmh 29.03 in983.1 mb 0.00 in0.0 mm 0.00 in0.0 mm 0.00 in0.0 mm
08:49 AM 73.9°F23.3°C 73.9°F23.3°C 100% 4.3 mph WSW6.9 kmh WSW 12.0 mph19.3 kmh 29.03 in983.1 mb 0.00 in0.0 mm 0.00 in0.0 mm 0.00 in0.0 mm
08:48 AM 73.9°F23.3°C 73.9°F23.3°C 100% 5.0 mph WSW8.0 kmh WSW 12.0 mph19.3 kmh 29.03 in983.1 mb 0.00 in0.0 mm 0.00 in0.0 mm 0.00 in0.0 mm
08:47 AM 73.9°F23.3°C 73.9°F23.3°C 100% 4.7 mph WSW7.6 kmh WSW 12.0 mph19.3 kmh 29.03 in983.1 mb 0.00 in0.0 mm 0.00 in0.0 mm 0.00 in0.0 mm
08:46 AM 73.9°F23.3°C 73.9°F23.3°C 100% 4.1 mph SW6.6 kmh SW 12.0 mph19.3 kmh 29.03 in983.1 mb 0.00 in0.0 mm 0.00 in0.0 mm 0.00 in0.0 mm
08:45 AM 73.9°F23.3°C 73.9°F23.3°C 100% 4.7 mph SW7.6 kmh SW 12.0 mph19.3 kmh 29.03 in983.1 mb 0.00 in0.0 mm 0.00 in0.0 mm 0.00 in0.0 mm
08:44 AM 73.9°F23.3°C 73.9°F23.3°C 100% 5.9 mph WSW9.5 kmh WSW 12.0 mph19.3 kmh 29.03 in983.1 mb 0.00 in0.0 mm 0.00 in0.0 mm 0.00 in0.0 mm
08:43 AM 73.8°F23.2°C 73.8°F23.2°C 100% 6.2 mph WSW10.0 kmh WSW 12.0 mph19.3 kmh 29.03 in983.1 mb 0.00 in0.0 mm 0.00 in0.0 mm 0.00 in0.0 mm
08:42 AM 73.8°F23.2°C 73.8°F23.2°C 100% 4.0 mph W6.4 kmh W 11.0 mph17.7 kmh 29.03 in983.1 mb 0.00 in0.0 mm 0.00 in0.0 mm 0.00 in0.0 mm
08:41 AM 73.8°F23.2°C 73.8°F23.2°C 100% 4.0 mph WSW6.4 kmh WSW 11.0 mph17.7 kmh 29.03 in983.1 mb 0.00 in0.0 mm 0.00 in0.0 mm 0.00 in0.0 mm
08:40 AM 73.8°F23.2°C 73.8°F23.2°C 100% 4.0 mph WSW6.4 kmh WSW 11.0 mph17.7 kmh 29.03 in983.1 mb 0.00 in0.0 mm 0.00 in0.0 mm 0.00 in0.0 mm
08:39 AM 73.8°F23.2°C 73.8°F23.2°C 100% 4.3 mph WSW6.9 kmh WSW 11.0 mph17.7 kmh 29.03 in983.1 mb 0.00 in0.0 mm 0.00 in0.0 mm 0.00 in0.0 mm
08:38 AM 73.8°F23.2°C 73.8°F23.2°C 100% 5.4 mph WSW8.7 kmh WSW 11.0 mph17.7 kmh 29.03 in983.1 mb 0.00 in0.0 mm 0.00 in0.0 mm 0.00 in0.0 mm
08:37 AM 73.8°F23.2°C 73.8°F23.2°C 100% 5.0 mph WSW8.0 kmh WSW 11.0 mph17.7 kmh 29.03 in983.1 mb 0.00 in0.0 mm 0.00 in0.0 mm 0.00 in0.0 mm
08:36 AM 73.6°F23.1°C 73.6°F23.1°C 100% 3.6 mph WSW5.8 kmh WSW 9.1 mph14.6 kmh 29.03 in983.1 mb 0.00 in0.0 mm 0.00 in0.0 mm 0.00 in0.0 mm
08:35 AM 73.6°F23.1°C 73.6°F23.1°C 100% 3.7 mph WSW6.0 kmh WSW 9.1 mph14.6 kmh 29.03 in983.1 mb 0.00 in0.0 mm 0.00 in0.0 mm 0.00 in0.0 mm
08:34 AM 73.6°F23.1°C 73.6°F23.1°C 100% 4.7 mph WSW7.6 kmh WSW 9.1 mph14.6 kmh 29.03 in983.1 mb 0.00 in0.0 mm 0.00 in0.0 mm 0.00 in0.0 mm
08:33 AM 73.6°F23.1°C 73.6°F23.1°C 100% 5.4 mph WSW8.7 kmh WSW 9.1 mph14.6 kmh 29.03 in983.1 mb 0.00 in0.0 mm 0.00 in0.0 mm 0.00 in0.0 mm
08:32 AM 73.4°F23.0°C 73.4°F23.0°C 100% 4.9 mph W7.9 kmh W 9.1 mph14.6 kmh 29.03 in983.1 mb 0.00 in0.0 mm 0.00 in0.0 mm 0.00 in0.0 mm
08:31 AM 73.4°F23.0°C 73.4°F23.0°C 100% 4.6 mph W7.4 kmh W 9.1 mph14.6 kmh 29.03 in983.1 mb 0.00 in0.0 mm 0.00 in0.0 mm 0.00 in0.0 mm
08:30 AM 73.4°F23.0°C 73.4°F23.0°C 100% 3.5 mph W5.6 kmh W 9.1 mph14.6 kmh 29.03 in983.1 mb 0.00 in0.0 mm 0.00 in0.0 mm 0.00 in0.0 mm
08:29 AM 73.4°F23.0°C 73.4°F23.0°C 100% 3.4 mph WSW5.5 kmh WSW 9.1 mph14.6 kmh 29.03 in983.1 mb 0.00 in0.0 mm 0.00 in0.0 mm 0.00 in0.0 mm
08:28 AM 73.4°F23.0°C 73.4°F23.0°C 100% 3.3 mph SW5.3 kmh SW 9.1 mph14.6 kmh 29.03 in983.1 mb 0.00 in0.0 mm 0.00 in0.0 mm 0.00 in0.0 mm
08:27 AM 73.2°F22.9°C 73.2°F22.9°C 100% 4.0 mph SW6.4 kmh SW 9.1 mph14.6 kmh 29.03 in983.1 mb 0.00 in0.0 mm 0.00 in0.0 mm 0.00 in0.0 mm
08:26 AM 73.2°F22.9°C 73.2°F22.9°C 100% 5.1 mph WSW8.2 kmh WSW 9.1 mph14.6 kmh 29.03 in983.1 mb 0.00 in0.0 mm 0.00 in0.0 mm 0.00 in0.0 mm
08:25 AM 73.2°F22.9°C 73.2°F22.9°C 100% 5.6 mph WSW9.0 kmh WSW 9.1 mph14.6 kmh 29.03 in983.1 mb 0.00 in0.0 mm 0.00 in0.0 mm 0.00 in0.0 mm
08:24 AM 73.2°F22.9°C 73.2°F22.9°C 100% 4.3 mph WSW6.9 kmh WSW 9.1 mph14.6 kmh 29.03 in983.1 mb 0.00 in0.0 mm 0.00 in0.0 mm 0.00 in0.0 mm
08:23 AM 73.2°F22.9°C 73.2°F22.9°C 100% 3.3 mph SW5.3 kmh SW 9.1 mph14.6 kmh 29.03 in983.1 mb 0.00 in0.0 mm 0.00 in0.0 mm 0.00 in0.0 mm
08:22 AM 73.0°F22.8°C 73.0°F22.8°C 100% 4.9 mph WSW7.9 kmh WSW 9.1 mph14.6 kmh 29.03 in983.1 mb 0.00 in0.0 mm 0.00 in0.0 mm 0.00 in0.0 mm
08:21 AM 73.0°F22.8°C 73.0°F22.8°C 100% 4.8 mph WSW7.7 kmh WSW 11.0 mph17.7 kmh 29.03 in983.1 mb 0.00 in0.0 mm 0.00 in0.0 mm 0.00 in0.0 mm
08:20 AM 73.0°F22.8°C 73.0°F22.8°C 100% 4.3 mph WSW6.9 kmh WSW 11.0 mph17.7 kmh 29.03 in983.1 mb 0.00 in0.0 mm 0.00 in0.0 mm 0.00 in0.0 mm
08:19 AM 73.0°F22.8°C 73.0°F22.8°C 100% 3.7 mph SW6.0 kmh SW 11.0 mph17.7 kmh 29.03 in983.1 mb 0.00 in0.0 mm 0.00 in0.0 mm 0.00 in0.0 mm
08:18 AM 73.0°F22.8°C 73.0°F22.8°C 100% 4.0 mph SW6.4 kmh SW 11.0 mph17.7 kmh 29.03 in983.1 mb 0.00 in0.0 mm 0.00 in0.0 mm 0.00 in0.0 mm
08:17 AM 72.9°F22.7°C 72.9°F22.7°C 100% 3.8 mph WSW6.1 kmh WSW 11.0 mph17.7 kmh 29.03 in983.1 mb 0.00 in0.0 mm 0.00 in0.0 mm 0.00 in0.0 mm
08:16 AM 72.9°F22.7°C 72.9°F22.7°C 100% 4.1 mph WSW6.6 kmh WSW 11.0 mph17.7 kmh 29.03 in983.1 mb 0.00 in0.0 mm 0.00 in0.0 mm 0.00 in0.0 mm
08:15 AM 72.9°F22.7°C 72.9°F22.7°C 100% 4.2 mph WSW6.8 kmh WSW 11.0 mph17.7 kmh 29.00 in982.1 mb 0.00 in0.0 mm 0.00 in0.0 mm 0.00 in0.0 mm
08:14 AM 72.9°F22.7°C 72.9°F22.7°C 100% 4.4 mph WSW7.1 kmh WSW 11.0 mph17.7 kmh 29.00 in982.1 mb 0.00 in0.0 mm 0.00 in0.0 mm 0.00 in0.0 mm
08:13 AM 72.9°F22.7°C 72.9°F22.7°C 100% 4.4 mph WSW7.1 kmh WSW 11.0 mph17.7 kmh 29.00 in982.1 mb 0.00 in0.0 mm 0.00 in0.0 mm 0.00 in0.0 mm
08:12 AM 72.9°F22.7°C 72.9°F22.7°C 100% 3.0 mph SW4.8 kmh SW 11.0 mph17.7 kmh 29.00 in982.1 mb 0.00 in0.0 mm 0.00 in0.0 mm 0.00 in0.0 mm
08:11 AM 72.7°F22.6°C 72.7°F22.6°C 100% 3.1 mph WSW5.0 kmh WSW 7.8 mph12.6 kmh 29.00 in982.1 mb 0.00 in0.0 mm 0.00 in0.0 mm 0.00 in0.0 mm
08:10 AM 72.7°F22.6°C 72.7°F22.6°C 100% 3.4 mph WSW5.5 kmh WSW 7.8 mph12.6 kmh 29.00 in982.1 mb 0.00 in0.0 mm 0.00 in0.0 mm 0.00 in0.0 mm
08:09 AM 72.7°F22.6°C 72.7°F22.6°C 100% 3.4 mph WSW5.5 kmh WSW 5.8 mph9.3 kmh 29.00 in982.1 mb 0.00 in0.0 mm 0.00 in0.0 mm 0.00 in0.0 mm
08:08 AM 72.7°F22.6°C 72.7°F22.6°C 100% 3.0 mph WSW4.8 kmh WSW 5.8 mph9.3 kmh 29.00 in982.1 mb 0.00 in0.0 mm 0.00 in0.0 mm 0.00 in0.0 mm
08:07 AM 72.7°F22.6°C 72.7°F22.6°C 100% Calm Calm 8.4 mph13.5 kmh 29.00 in982.1 mb 0.00 in0.0 mm 0.00 in0.0 mm 0.00 in0.0 mm
08:06 AM 72.7°F22.6°C 72.7°F22.6°C 100% 3.0 mph SW4.8 kmh SW 8.4 mph13.5 kmh 29.00 in982.1 mb 0.00 in0.0 mm 0.00 in0.0 mm 0.00 in0.0 mm
08:05 AM 72.7°F22.6°C 72.7°F22.6°C 100% 3.0 mph SW4.8 kmh SW 8.4 mph13.5 kmh 29.00 in982.1 mb 0.00 in0.0 mm 0.00 in0.0 mm 0.00 in0.0 mm
08:04 AM 72.5°F22.5°C 72.5°F22.5°C 100% 3.1 mph SW5.0 kmh SW 8.4 mph13.5 kmh 29.00 in982.1 mb 0.00 in0.0 mm 0.00 in0.0 mm 0.00 in0.0 mm
08:03 AM 72.5°F22.5°C 72.5°F22.5°C 100% 3.4 mph WSW5.5 kmh WSW 8.4 mph13.5 kmh 29.00 in982.1 mb 0.00 in0.0 mm 0.00 in0.0 mm 0.00 in0.0 mm
08:02 AM 72.5°F22.5°C 72.5°F22.5°C 100% 3.7 mph W6.0 kmh W 8.4 mph13.5 kmh 29.00 in982.1 mb 0.00 in0.0 mm 0.00 in0.0 mm 0.00 in0.0 mm
08:01 AM 72.5°F22.5°C 72.5°F22.5°C 100% 3.0 mph WSW4.8 kmh WSW 8.4 mph13.5 kmh 29.00 in982.1 mb 0.00 in0.0 mm 0.00 in0.0 mm 0.00 in0.0 mm
08:00 AM 72.5°F22.5°C 72.5°F22.5°C 100% 3.0 mph WSW4.8 kmh WSW 8.4 mph13.5 kmh 29.00 in982.1 mb 0.00 in0.0 mm 0.00 in0.0 mm 0.00 in0.0 mm
07:59 AM 72.5°F22.5°C 72.5°F22.5°C 100% 3.0 mph WSW4.8 kmh WSW 8.4 mph13.5 kmh 29.00 in982.1 mb 0.00 in0.0 mm 0.00 in0.0 mm 0.00 in0.0 mm
07:58 AM 72.3°F22.4°C 72.3°F22.4°C 100% Calm Calm 8.4 mph13.5 kmh 29.00 in982.1 mb 0.00 in0.0 mm 0.00 in0.0 mm 0.00 in0.0 mm
07:57 AM 72.3°F22.4°C 72.3°F22.4°C 100% Calm Calm 8.4 mph13.5 kmh 29.00 in982.1 mb 0.00 in0.0 mm 0.00 in0.0 mm 0.00 in0.0 mm
07:56 AM 72.3°F22.4°C 72.3°F22.4°C 100% Calm Calm 5.2 mph8.4 kmh 29.00 in982.1 mb 0.00 in0.0 mm 0.00 in0.0 mm 0.00 in0.0 mm
07:55 AM 72.3°F22.4°C 72.3°F22.4°C 100% 3.0 mph SW4.8 kmh SW 5.2 mph8.4 kmh 29.00 in982.1 mb 0.00 in0.0 mm 0.00 in0.0 mm 0.00 in0.0 mm
07:54 AM 72.3°F22.4°C 72.3°F22.4°C 100% 3.0 mph SW4.8 kmh SW 5.2 mph8.4 kmh 29.00 in982.1 mb 0.00 in0.0 mm 0.00 in0.0 mm 0.00 in0.0 mm
07:53 AM 72.3°F22.4°C 72.3°F22.4°C 100% 3.0 mph SW4.8 kmh SW 5.2 mph8.4 kmh 29.00 in982.1 mb 0.00 in0.0 mm 0.00 in0.0 mm 0.00 in0.0 mm
07:52 AM 72.3°F22.4°C 72.3°F22.4°C 100% Calm Calm 5.2 mph8.4 kmh 29.00 in982.1 mb 0.00 in0.0 mm 0.00 in0.0 mm 0.00 in0.0 mm
07:51 AM 72.1°F22.3°C 72.1°F22.3°C 100% Calm Calm 8.4 mph13.5 kmh 29.00 in982.1 mb 0.00 in0.0 mm 0.00 in0.0 mm 0.00 in0.0 mm
07:50 AM 72.1°F22.3°C 72.1°F22.3°C 100% Calm Calm 8.4 mph13.5 kmh 29.00 in982.1 mb 0.00 in0.0 mm 0.00 in0.0 mm 0.00 in0.0 mm
07:49 AM 72.1°F22.3°C 72.1°F22.3°C 100% Calm Calm 8.4 mph13.5 kmh 29.00 in982.1 mb 0.00 in0.0 mm 0.00 in0.0 mm 0.00 in0.0 mm
07:48 AM 72.1°F22.3°C 72.1°F22.3°C 100% Calm Calm 8.4 mph13.5 kmh 29.00 in982.1 mb 0.00 in0.0 mm 0.00 in0.0 mm 0.00 in0.0 mm
07:47 AM 72.1°F22.3°C 72.1°F22.3°C 100% Calm Calm 8.4 mph13.5 kmh 29.00 in982.1 mb 0.00 in0.0 mm 0.00 in0.0 mm 0.00 in0.0 mm
07:46 AM 72.1°F22.3°C 72.1°F22.3°C 100% Calm Calm 8.4 mph13.5 kmh 29.00 in982.1 mb 0.00 in0.0 mm 0.00 in0.0 mm 0.00 in0.0 mm
07:45 AM 72.1°F22.3°C 72.1°F22.3°C 100% 3.7 mph WSW6.0 kmh WSW 8.4 mph13.5 kmh 29.00 in982.1 mb 0.00 in0.0 mm 0.00 in0.0 mm 0.00 in0.0 mm
07:44 AM 72.1°F22.3°C 72.1°F22.3°C 100% 3.7 mph WSW6.0 kmh WSW 8.4 mph13.5 kmh 29.00 in982.1 mb 0.00 in0.0 mm 0.00 in0.0 mm 0.00 in0.0 mm
07:43 AM 72.1°F22.3°C 72.1°F22.3°C 100% 3.7 mph WSW6.0 kmh WSW 8.4 mph13.5 kmh 29.00 in982.1 mb 0.00 in0.0 mm 0.00 in0.0 mm 0.00 in0.0 mm
07:42 AM 72.1°F22.3°C 72.1°F22.3°C 100% Calm Calm 8.4 mph13.5 kmh 29.00 in982.1 mb 0.00 in0.0 mm 0.00 in0.0 mm 0.00 in0.0 mm
07:41 AM 72.0°F22.2°C 72.0°F22.2°C 100% Calm Calm 5.2 mph8.4 kmh 29.00 in982.1 mb 0.00 in0.0 mm 0.00 in0.0 mm 0.00 in0.0 mm
07:40 AM 72.0°F22.2°C 72.0°F22.2°C 100% Calm Calm 5.2 mph8.4 kmh 29.00 in982.1 mb 0.00 in0.0 mm 0.00 in0.0 mm 0.00 in0.0 mm
07:39 AM 72.0°F22.2°C 72.0°F22.2°C 100% Calm Calm 5.2 mph8.4 kmh 29.00 in982.1 mb 0.00 in0.0 mm 0.00 in0.0 mm 0.00 in0.0 mm
07:38 AM 72.0°F22.2°C 72.0°F22.2°C 100% Calm Calm 5.2 mph8.4 kmh 29.00 in982.1 mb 0.00 in0.0 mm 0.00 in0.0 mm 0.00 in0.0 mm
07:37 AM 72.0°F22.2°C 72.0°F22.2°C 100% Calm Calm 5.2 mph8.4 kmh 29.00 in982.1 mb 0.00 in0.0 mm 0.00 in0.0 mm 0.00 in0.0 mm
07:36 AM 72.0°F22.2°C 72.0°F22.2°C 100% Calm Calm 5.2 mph8.4 kmh 29.00 in982.1 mb 0.00 in0.0 mm 0.00 in0.0 mm 0.00 in0.0 mm
07:35 AM 72.0°F22.2°C 72.0°F22.2°C 100% Calm Calm 5.2 mph8.4 kmh 29.00 in982.1 mb 0.00 in0.0 mm 0.00 in0.0 mm 0.00 in0.0 mm
07:34 AM 72.0°F22.2°C 72.0°F22.2°C 100% Calm Calm 5.2 mph8.4 kmh 29.00 in982.1 mb 0.00 in0.0 mm 0.00 in0.0 mm 0.00 in0.0 mm
07:33 AM 72.0°F22.2°C 72.0°F22.2°C 100% Calm Calm 5.2 mph8.4 kmh 29.00 in982.1 mb 0.00 in0.0 mm 0.00 in0.0 mm 0.00 in0.0 mm
07:32 AM 72.0°F22.2°C 72.0°F22.2°C 100% Calm Calm 5.2 mph8.4 kmh 29.00 in982.1 mb 0.00 in0.0 mm 0.00 in0.0 mm 0.00 in0.0 mm
07:31 AM 72.0°F22.2°C 72.0°F22.2°C 100% Calm Calm 5.2 mph8.4 kmh 29.00 in982.1 mb 0.00 in0.0 mm 0.00 in0.0 mm 0.00 in0.0 mm
07:30 AM 71.8°F22.1°C 71.8°F22.1°C 100% Calm Calm 5.8 mph9.3 kmh 29.00 in982.1 mb 0.00 in0.0 mm 0.00 in0.0 mm 0.00 in0.0 mm
07:29 AM 71.8°F22.1°C 71.8°F22.1°C 100% Calm Calm 7.8 mph12.6 kmh 29.00 in982.1 mb 0.00 in0.0 mm 0.00 in0.0 mm 0.00 in0.0 mm
07:28 AM 71.8°F22.1°C 71.8°F22.1°C 100% Calm Calm 7.8 mph12.6 kmh 29.00 in982.1 mb 0.00 in0.0 mm 0.00 in0.0 mm 0.00 in0.0 mm
07:27 AM 71.8°F22.1°C 71.8°F22.1°C 100% Calm Calm 7.8 mph12.6 kmh 29.00 in982.1 mb 0.00 in0.0 mm 0.00 in0.0 mm 0.00 in0.0 mm
07:26 AM 71.8°F22.1°C 71.8°F22.1°C 100% Calm Calm 7.8 mph12.6 kmh 29.00 in982.1 mb 0.00 in0.0 mm 0.00 in0.0 mm 0.00 in0.0 mm
07:25 AM 71.8°F22.1°C 71.8°F22.1°C 100% Calm Calm 7.8 mph12.6 kmh 29.00 in982.1 mb 0.00 in0.0 mm 0.00 in0.0 mm 0.00 in0.0 mm
07:24 AM 71.8°F22.1°C 71.8°F22.1°C 100% Calm Calm 7.8 mph12.6 kmh 29.00 in982.1 mb 0.00 in0.0 mm 0.00 in0.0 mm 0.00 in0.0 mm
07:23 AM 71.8°F22.1°C 71.8°F22.1°C 100% 3.0 mph SW4.8 kmh SW 7.8 mph12.6 kmh 29.00 in982.1 mb 0.00 in0.0 mm 0.00 in0.0 mm 0.00 in0.0 mm
07:22 AM 71.8°F22.1°C 71.8°F22.1°C 100% 3.0 mph SW4.8 kmh SW 7.8 mph12.6 kmh 29.00 in982.1 mb 0.00 in0.0 mm 0.00 in0.0 mm 0.00 in0.0 mm
07:21 AM 71.8°F22.1°C 71.8°F22.1°C 100% 3.0 mph SW4.8 kmh SW 7.8 mph12.6 kmh 29.00 in982.1 mb 0.00 in0.0 mm 0.00 in0.0 mm 0.00 in0.0 mm
07:20 AM 71.8°F22.1°C 71.8°F22.1°C 100% 3.0 mph SW4.8 kmh SW 7.1 mph11.4 kmh 29.00 in982.1 mb 0.00 in0.0 mm 0.00 in0.0 mm 0.00 in0.0 mm
07:19 AM 71.8°F22.1°C 71.8°F22.1°C 100% 3.0 mph SW4.8 kmh SW 7.1 mph11.4 kmh 29.00 in982.1 mb 0.00 in0.0 mm 0.00 in0.0 mm 0.00 in0.0 mm
07:18 AM 71.8°F22.1°C 71.8°F22.1°C 100% 3.0 mph WSW4.8 kmh WSW 7.1 mph11.4 kmh 29.00 in982.1 mb 0.00 in0.0 mm 0.00 in0.0 mm 0.00 in0.0 mm
07:17 AM 71.6°F22.0°C 71.6°F22.0°C 100% 3.0 mph WSW4.8 kmh WSW 7.1 mph11.4 kmh 29.00 in982.1 mb 0.00 in0.0 mm 0.00 in0.0 mm 0.00 in0.0 mm
07:16 AM 71.6°F22.0°C 71.6°F22.0°C 100% Calm Calm 7.1 mph11.4 kmh 29.00 in982.1 mb 0.00 in0.0 mm 0.00 in0.0 mm 0.00 in0.0 mm
07:15 AM 71.6°F22.0°C 71.6°F22.0°C 100% Calm Calm 5.2 mph8.4 kmh 29.00 in982.1 mb 0.00 in0.0 mm 0.00 in0.0 mm 0.00 in0.0 mm
07:14 AM 71.6°F22.0°C 71.6°F22.0°C 100% Calm Calm 5.8 mph9.3 kmh 29.00 in982.1 mb 0.00 in0.0 mm 0.00 in0.0 mm 0.00 in0.0 mm
07:13 AM 71.6°F22.0°C 71.6°F22.0°C 100% Calm Calm 5.8 mph9.3 kmh 29.00 in982.1 mb 0.00 in0.0 mm 0.00 in0.0 mm 0.00 in0.0 mm
07:12 AM 71.6°F22.0°C 71.6°F22.0°C 100% Calm Calm 5.8 mph9.3 kmh 29.00 in982.1 mb 0.00 in0.0 mm 0.00 in0.0 mm 0.00 in0.0 mm
07:11 AM 71.6°F22.0°C 71.6°F22.0°C 100% Calm Calm 5.8 mph9.3 kmh 29.00 in982.1 mb 0.00 in0.0 mm 0.00 in0.0 mm 0.00 in0.0 mm
07:10 AM 71.6°F22.0°C 71.6°F22.0°C 100% Calm Calm 5.8 mph9.3 kmh 29.00 in982.1 mb 0.00 in0.0 mm 0.00 in0.0 mm 0.00 in0.0 mm
07:09 AM 71.6°F22.0°C 71.6°F22.0°C 100% Calm Calm 5.8 mph9.3 kmh 29.00 in982.1 mb 0.00 in0.0 mm 0.00 in0.0 mm 0.00 in0.0 mm
07:08 AM 71.6°F22.0°C 71.6°F22.0°C 100% Calm Calm 5.8 mph9.3 kmh 29.00 in982.1 mb 0.00 in0.0 mm 0.00 in0.0 mm 0.00 in0.0 mm
07:07 AM 71.6°F22.0°C 71.6°F22.0°C 100% Calm Calm 5.8 mph9.3 kmh 29.00 in982.1 mb 0.00 in0.0 mm 0.00 in0.0 mm 0.00 in0.0 mm
07:06 AM 71.4°F21.9°C 71.4°F21.9°C 100% Calm Calm 5.8 mph9.3 kmh 29.00 in982.1 mb 0.00 in0.0 mm 0.00 in0.0 mm 0.00 in0.0 mm
07:05 AM 71.4°F21.9°C 71.4°F21.9°C 100% Calm Calm 5.8 mph9.3 kmh 29.00 in982.1 mb 0.00 in0.0 mm 0.00 in0.0 mm 0.00 in0.0 mm
07:04 AM 71.4°F21.9°C 71.4°F21.9°C 100% 3.0 mph WSW4.8 kmh WSW 5.8 mph9.3 kmh 29.00 in982.1 mb 0.00 in0.0 mm 0.00 in0.0 mm 0.00 in0.0 mm
07:03 AM 71.4°F21.9°C 71.4°F21.9°C 100% 3.0 mph WSW4.8 kmh WSW 5.8 mph9.3 kmh 29.00 in982.1 mb 0.00 in0.0 mm 0.00 in0.0 mm 0.00 in0.0 mm
07:02 AM 71.4°F21.9°C 71.4°F21.9°C 100% 3.0 mph WSW4.8 kmh WSW 7.1 mph11.4 kmh 29.00 in982.1 mb 0.00 in0.0 mm 0.00 in0.0 mm 0.00 in0.0 mm
07:01 AM 71.4°F21.9°C 71.4°F21.9°C 100% 3.0 mph WSW4.8 kmh WSW 7.1 mph11.4 kmh 29.00 in982.1 mb 0.00 in0.0 mm 0.00 in0.0 mm 0.00 in0.0 mm
07:00 AM 71.4°F21.9°C 71.4°F21.9°C 100% 3.0 mph WSW4.8 kmh WSW 7.1 mph11.4 kmh 29.00 in982.1 mb 0.00 in0.0 mm 0.00 in0.0 mm 0.00 in0.0 mm
06:59 AM 71.4°F21.9°C 71.4°F21.9°C 100% Calm Calm 7.1 mph11.4 kmh 29.00 in982.1 mb 0.00 in0.0 mm 0.00 in0.0 mm 0.00 in0.0 mm
06:58 AM 71.4°F21.9°C 71.4°F21.9°C 100% Calm Calm 7.1 mph11.4 kmh 29.00 in982.1 mb 0.00 in0.0 mm 0.00 in0.0 mm 0.00 in0.0 mm
06:57 AM 71.4°F21.9°C 71.4°F21.9°C 100% 3.0 mph SW4.8 kmh SW 7.1 mph11.4 kmh 29.00 in982.1 mb 0.00 in0.0 mm 0.00 in0.0 mm 0.00 in0.0 mm
06:56 AM 71.4°F21.9°C 71.4°F21.9°C 100% 3.0 mph SW4.8 kmh SW 7.1 mph11.4 kmh 29.00 in982.1 mb 0.00 in0.0 mm 0.00 in0.0 mm 0.00 in0.0 mm
06:55 AM 71.4°F21.9°C 71.4°F21.9°C 100% 3.0 mph SW4.8 kmh SW 7.1 mph11.4 kmh 29.00 in982.1 mb 0.00 in0.0 mm 0.00 in0.0 mm 0.00 in0.0 mm
06:54 AM 71.4°F21.9°C 71.4°F21.9°C 100% 3.0 mph SW4.8 kmh SW 7.1 mph11.4 kmh 29.00 in982.1 mb 0.00 in0.0 mm 0.00 in0.0 mm 0.00 in0.0 mm
06:53 AM 71.4°F21.9°C 71.4°F21.9°C 100% 3.0 mph SW4.8 kmh SW 7.1 mph11.4 kmh 29.00 in982.1 mb 0.00 in0.0 mm 0.00 in0.0 mm 0.00 in0.0 mm
06:52 AM 71.4°F21.9°C 71.4°F21.9°C 100% Calm Calm 7.1 mph11.4 kmh 29.00 in982.1 mb 0.00 in0.0 mm 0.00 in0.0 mm 0.00 in0.0 mm
06:51 AM 71.4°F21.9°C 71.4°F21.9°C 100% Calm Calm 7.1 mph11.4 kmh 29.00 in982.1 mb 0.00 in0.0 mm 0.00 in0.0 mm 0.00 in0.0 mm
06:50 AM 71.2°F21.8°C 71.2°F21.8°C 100% Calm Calm 7.1 mph11.4 kmh 29.00 in982.1 mb 0.00 in0.0 mm 0.00 in0.0 mm 0.00 in0.0 mm
06:49 AM 71.2°F21.8°C 71.2°F21.8°C 100% Calm Calm 7.1 mph11.4 kmh 29.00 in982.1 mb 0.00 in0.0 mm 0.00 in0.0 mm 0.00 in0.0 mm
06:48 AM 71.2°F21.8°C 71.2°F21.8°C 100% Calm Calm 7.1 mph11.4 kmh 29.00 in982.1 mb 0.00 in0.0 mm 0.00 in0.0 mm 0.00 in0.0 mm
06:47 AM 71.2°F21.8°C 71.2°F21.8°C 100% Calm Calm 7.1 mph11.4 kmh 29.00 in982.1 mb 0.00 in0.0 mm 0.00 in0.0 mm 0.00 in0.0 mm
06:46 AM 71.2°F21.8°C 71.2°F21.8°C 100% Calm Calm 7.1 mph11.4 kmh 29.00 in982.1 mb 0.00 in0.0 mm 0.00 in0.0 mm 0.00 in0.0 mm
06:45 AM 71.2°F21.8°C 71.2°F21.8°C 100% Calm Calm 7.1 mph11.4 kmh 29.00 in982.1 mb 0.00 in0.0 mm 0.00 in0.0 mm 0.00 in0.0 mm
06:44 AM 71.2°F21.8°C 71.2°F21.8°C 100% Calm Calm 7.1 mph11.4 kmh 29.00 in982.1 mb 0.00 in0.0 mm 0.00 in0.0 mm 0.00 in0.0 mm
06:43 AM 71.2°F21.8°C 71.2°F21.8°C 100% Calm Calm 5.8 mph9.3 kmh 29.00 in982.1 mb 0.00 in0.0 mm 0.00 in0.0 mm 0.00 in0.0 mm
06:42 AM 71.2°F21.8°C 71.2°F21.8°C 100% 3.0 mph WSW4.8 kmh WSW 5.8 mph9.3 kmh 29.00 in982.1 mb 0.00 in0.0 mm 0.00 in0.0 mm 0.00 in0.0 mm
06:41 AM 71.2°F21.8°C 71.2°F21.8°C 100% 3.0 mph WSW4.8 kmh WSW 5.8 mph9.3 kmh 29.00 in982.1 mb 0.00 in0.0 mm 0.00 in0.0 mm 0.00 in0.0 mm
06:40 AM 71.2°F21.8°C 71.2°F21.8°C 100% 3.0 mph WSW4.8 kmh WSW 5.8 mph9.3 kmh 29.00 in982.1 mb 0.00 in0.0 mm 0.00 in0.0 mm 0.00 in0.0 mm
06:39 AM 71.2°F21.8°C 71.2°F21.8°C 100% 3.0 mph WSW4.8 kmh WSW 5.8 mph9.3 kmh 29.00 in982.1 mb 0.00 in0.0 mm 0.00 in0.0 mm 0.00 in0.0 mm
06:38 AM 71.2°F21.8°C 71.2°F21.8°C 100% Calm Calm 5.8 mph9.3 kmh 29.00 in982.1 mb 0.00 in0.0 mm 0.00 in0.0 mm 0.00 in0.0 mm
06:37 AM 71.2°F21.8°C 71.2°F21.8°C 100% Calm Calm 5.8 mph9.3 kmh 29.00 in982.1 mb 0.00 in0.0 mm 0.00 in0.0 mm 0.00 in0.0 mm
06:36 AM 71.1°F21.7°C 71.1°F21.7°C 100% Calm Calm 5.8 mph9.3 kmh 29.00 in982.1 mb 0.00 in0.0 mm 0.00 in0.0 mm 0.00 in0.0 mm
06:35 AM 71.1°F21.7°C 71.1°F21.7°C 100% Calm Calm 5.8 mph9.3 kmh 29.00 in982.1 mb 0.00 in0.0 mm 0.00 in0.0 mm 0.00 in0.0 mm
06:34 AM 71.1°F21.7°C 71.1°F21.7°C 100% Calm Calm 5.8 mph9.3 kmh 29.00 in982.1 mb 0.00 in0.0 mm 0.00 in0.0 mm 0.00 in0.0 mm
06:33 AM 71.1°F21.7°C 71.1°F21.7°C 100% Calm Calm 5.8 mph9.3 kmh 29.00 in982.1 mb 0.00 in0.0 mm 0.00 in0.0 mm 0.00 in0.0 mm
06:32 AM 71.1°F21.7°C 71.1°F21.7°C 100% 4.3 mph SW6.9 kmh SW 5.8 mph9.3 kmh 29.00 in982.1 mb 0.00 in0.0 mm 0.00 in0.0 mm 0.00 in0.0 mm
06:31 AM 71.1°F21.7°C 71.1°F21.7°C 100% 4.3 mph SW6.9 kmh SW 5.8 mph9.3 kmh 29.00 in982.1 mb 0.00 in0.0 mm 0.00 in0.0 mm 0.00 in0.0 mm
06:30 AM 71.1°F21.7°C 71.1°F21.7°C 100% 4.3 mph SW6.9 kmh SW 5.8 mph9.3 kmh 29.00 in982.1 mb 0.00 in0.0 mm 0.00 in0.0 mm 0.00 in0.0 mm
06:29 AM 71.1°F21.7°C 71.1°F21.7°C 100% Calm Calm 5.8 mph9.3 kmh 29.00 in982.1 mb 0.00 in0.0 mm 0.00 in0.0 mm 0.00 in0.0 mm
06:28 AM 71.1°F21.7°C 71.1°F21.7°C 100% Calm Calm 5.2 mph8.4 kmh 29.00 in982.1 mb 0.00 in0.0 mm 0.00 in0.0 mm 0.00 in0.0 mm
06:27 AM 71.1°F21.7°C 71.1°F21.7°C 100% Calm Calm 5.2 mph8.4 kmh 29.00 in982.1 mb 0.00 in0.0 mm 0.00 in0.0 mm 0.00 in0.0 mm
06:26 AM 71.1°F21.7°C 71.1°F21.7°C 100% Calm Calm 5.2 mph8.4 kmh 29.00 in982.1 mb 0.00 in0.0 mm 0.00 in0.0 mm 0.00 in0.0 mm
06:25 AM 71.1°F21.7°C 71.1°F21.7°C 100% Calm Calm 5.2 mph8.4 kmh 29.00 in982.1 mb 0.00 in0.0 mm 0.00 in0.0 mm 0.00 in0.0 mm
06:24 AM 71.1°F21.7°C 71.1°F21.7°C 100% Calm Calm 5.2 mph8.4 kmh 29.00 in982.1 mb 0.00 in0.0 mm 0.00 in0.0 mm 0.00 in0.0 mm
06:23 AM 71.2°F21.8°C 71.2°F21.8°C 100% Calm Calm 5.2 mph8.4 kmh 29.00 in982.1 mb 0.00 in0.0 mm 0.00 in0.0 mm 0.00 in0.0 mm
06:22 AM 71.2°F21.8°C 71.2°F21.8°C 100% Calm Calm 5.2 mph8.4 kmh 29.00 in982.1 mb 0.00 in0.0 mm 0.00 in0.0 mm 0.00 in0.0 mm
06:21 AM 71.2°F21.8°C 71.2°F21.8°C 100% Calm Calm 5.2 mph8.4 kmh 29.00 in982.1 mb 0.00 in0.0 mm 0.00 in0.0 mm 0.00 in0.0 mm
06:20 AM 71.2°F21.8°C 71.2°F21.8°C 100% Calm Calm 5.2 mph8.4 kmh 29.00 in982.1 mb 0.00 in0.0 mm 0.00 in0.0 mm 0.00 in0.0 mm
06:19 AM 71.2°F21.8°C 71.2°F21.8°C 100% Calm Calm 5.2 mph8.4 kmh 29.00 in982.1 mb 0.00 in0.0 mm 0.00 in0.0 mm 0.00 in0.0 mm
06:18 AM 71.2°F21.8°C 71.2°F21.8°C 100% Calm Calm 4.5 mph7.2 kmh 29.00 in982.1 mb 0.00 in0.0 mm 0.00 in0.0 mm 0.00 in0.0 mm
06:17 AM 71.2°F21.8°C 71.2°F21.8°C 100% Calm Calm 4.5 mph7.2 kmh 29.00 in982.1 mb 0.00 in0.0 mm 0.00 in0.0 mm 0.00 in0.0 mm
06:16 AM 71.2°F21.8°C 71.2°F21.8°C 100% Calm Calm 4.5 mph7.2 kmh 29.00 in982.1 mb 0.00 in0.0 mm 0.00 in0.0 mm 0.00 in0.0 mm
06:15 AM 71.2°F21.8°C 71.2°F21.8°C 100% Calm Calm 3.2 mph5.1 kmh 29.00 in982.1 mb 0.00 in0.0 mm 0.00 in0.0 mm 0.00 in0.0 mm
06:14 AM 71.2°F21.8°C 71.2°F21.8°C 100% Calm Calm 3.2 mph5.1 kmh 29.00 in982.1 mb 0.00 in0.0 mm 0.00 in0.0 mm 0.00 in0.0 mm
06:13 AM 71.2°F21.8°C 71.2°F21.8°C 100% Calm Calm 3.2 mph5.1 kmh 29.00 in982.1 mb 0.00 in0.0 mm 0.00 in0.0 mm 0.00 in0.0 mm
06:12 AM 71.2°F21.8°C 71.2°F21.8°C 100% Calm Calm 3.2 mph5.1 kmh 29.00 in982.1 mb 0.00 in0.0 mm 0.00 in0.0 mm 0.00 in0.0 mm
06:11 AM 71.2°F21.8°C 71.2°F21.8°C 100% Calm Calm 4.5 mph7.2 kmh 29.00 in982.1 mb 0.00 in0.0 mm 0.00 in0.0 mm 0.00 in0.0 mm
06:10 AM 71.2°F21.8°C 71.2°F21.8°C 100% Calm Calm 4.5 mph7.2 kmh 29.00 in982.1 mb 0.00 in0.0 mm 0.00 in0.0 mm 0.00 in0.0 mm
06:09 AM 71.2°F21.8°C 70.8°F21.6°C 99% Calm Calm 4.5 mph7.2 kmh 29.00 in982.1 mb 0.00 in0.0 mm 0.00 in0.0 mm 0.00 in0.0 mm
06:08 AM 71.2°F21.8°C 70.8°F21.6°C 99% Calm Calm 4.5 mph7.2 kmh 29.00 in982.1 mb 0.00 in0.0 mm 0.00 in0.0 mm 0.00 in0.0 mm
06:07 AM 71.2°F21.8°C 71.2°F21.8°C 100% Calm Calm 4.5 mph7.2 kmh 29.00 in982.1 mb 0.00 in0.0 mm 0.00 in0.0 mm 0.00 in0.0 mm
06:06 AM 71.2°F21.8°C 70.8°F21.6°C 99% Calm Calm 4.5 mph7.2 kmh 29.00 in982.1 mb 0.00 in0.0 mm 0.00 in0.0 mm 0.00 in0.0 mm
06:05 AM 71.2°F21.8°C 70.8°F21.6°C 99% Calm Calm 4.5 mph7.2 kmh 29.00 in982.1 mb 0.00 in0.0 mm 0.00 in0.0 mm 0.00 in0.0 mm
06:04 AM 71.2°F21.8°C 70.8°F21.6°C 99% Calm Calm 4.5 mph7.2 kmh 29.00 in982.1 mb 0.00 in0.0 mm 0.00 in0.0 mm 0.00 in0.0 mm
06:03 AM 71.2°F21.8°C 70.8°F21.6°C 99% Calm Calm 4.5 mph7.2 kmh 29.00 in982.1 mb 0.00 in0.0 mm 0.00 in0.0 mm 0.00 in0.0 mm
06:02 AM 71.2°F21.8°C 70.8°F21.6°C 99% Calm Calm 4.5 mph7.2 kmh 29.00 in982.1 mb 0.00 in0.0 mm 0.00 in0.0 mm 0.00 in0.0 mm
06:01 AM 71.2°F21.8°C 70.8°F21.6°C 99% Calm Calm 3.2 mph5.1 kmh 29.00 in982.1 mb 0.00 in0.0 mm 0.00 in0.0 mm 0.00 in0.0 mm
06:00 AM 71.2°F21.8°C 70.9°F21.6°C 99% Calm Calm -- 29.00 in982.1 mb 0.00 in0.0 mm 0.00 in0.0 mm 0.00 in0.0 mm
05:59 AM 71.4°F21.9°C 71.1°F21.7°C 99% Calm Calm -- 29.00 in982.1 mb 0.00 in0.0 mm 0.00 in0.0 mm 0.00 in0.0 mm
05:58 AM 71.4°F21.9°C 71.1°F21.7°C 99% Calm Calm -- 29.00 in982.1 mb 0.00 in0.0 mm 0.00 in0.0 mm 0.00 in0.0 mm
05:57 AM 71.4°F21.9°C 71.1°F21.7°C 99% Calm Calm -- 29.00 in982.1 mb 0.00 in0.0 mm 0.00 in0.0 mm 0.00 in0.0 mm
05:56 AM 71.4°F21.9°C 71.1°F21.7°C 99% Calm Calm -- 29.00 in982.1 mb 0.00 in0.0 mm 0.00 in0.0 mm 0.00 in0.0 mm
05:55 AM 71.4°F21.9°C 71.1°F21.7°C 99% Calm Calm -- 29.00 in982.1 mb 0.00 in0.0 mm 0.00 in0.0 mm 0.00 in0.0 mm
05:54 AM 71.4°F21.9°C 71.1°F21.7°C 99% Calm Calm -- 29.00 in982.1 mb 0.00 in0.0 mm 0.00 in0.0 mm 0.00 in0.0 mm
05:53 AM 71.4°F21.9°C 71.1°F21.7°C 99% Calm Calm -- 29.00 in982.1 mb 0.00 in0.0 mm 0.00 in0.0 mm 0.00 in0.0 mm
05:52 AM 71.6°F22.0°C 71.3°F21.8°C 99% Calm Calm -- 29.00 in982.1 mb 0.00 in0.0 mm 0.00 in0.0 mm 0.00 in0.0 mm
05:51 AM 71.6°F22.0°C 71.3°F21.8°C 99% Calm Calm -- 29.00 in982.1 mb 0.00 in0.0 mm 0.00 in0.0 mm 0.00 in0.0 mm
05:50 AM 71.6°F22.0°C 71.3°F21.8°C 99% Calm Calm -- 29.00 in982.1 mb 0.00 in0.0 mm 0.00 in0.0 mm 0.00 in0.0 mm
05:47 AM 71.6°F22.0°C 71.3°F21.8°C 99% Calm Calm 3.9 mph6.3 kmh 29.00 in982.1 mb 0.00 in0.0 mm 0.00 in0.0 mm 0.00 in0.0 mm
05:46 AM 71.6°F22.0°C 71.3°F21.8°C 99% Calm Calm 3.9 mph6.3 kmh 29.00 in982.1 mb 0.00 in0.0 mm 0.00 in0.0 mm 0.00 in0.0 mm
05:45 AM 71.6°F22.0°C 71.3°F21.8°C 99% Calm Calm 3.9 mph6.3 kmh 29.00 in982.1 mb 0.00 in0.0 mm 0.00 in0.0 mm 0.00 in0.0 mm
05:44 AM 71.6°F22.0°C 71.3°F21.8°C 99% Calm Calm 3.9 mph6.3 kmh 29.00 in982.1 mb 0.00 in0.0 mm 0.00 in0.0 mm 0.00 in0.0 mm
05:43 AM 71.6°F22.0°C 71.3°F21.8°C 99% Calm Calm 4.5 mph7.2 kmh 29.00 in982.1 mb 0.00 in0.0 mm 0.00 in0.0 mm 0.00 in0.0 mm
05:42 AM 71.6°F22.0°C 71.3°F21.8°C 99% Calm Calm 4.5 mph7.2 kmh 29.00 in982.1 mb 0.00 in0.0 mm 0.00 in0.0 mm 0.00 in0.0 mm
05:41 AM 71.6°F22.0°C 71.3°F21.8°C 99% Calm Calm 4.5 mph7.2 kmh 29.00 in982.1 mb 0.00 in0.0 mm 0.00 in0.0 mm 0.00 in0.0 mm
05:40 AM 71.6°F22.0°C 71.3°F21.8°C 99% Calm Calm 4.5 mph7.2 kmh 29.00 in982.1 mb 0.00 in0.0 mm 0.00 in0.0 mm 0.00 in0.0 mm
05:39 AM 71.6°F22.0°C 71.3°F21.8°C 99% Calm Calm 4.5 mph7.2 kmh 29.00 in982.1 mb 0.00 in0.0 mm 0.00 in0.0 mm 0.00 in0.0 mm
05:38 AM 71.6°F22.0°C 71.3°F21.8°C 99% Calm Calm 5.2 mph8.4 kmh 29.00 in982.1 mb 0.00 in0.0 mm 0.00 in0.0 mm 0.00 in0.0 mm
05:36 AM 71.6°F22.0°C 71.3°F21.8°C 99% Calm Calm 5.2 mph8.4 kmh 29.00 in982.1 mb 0.00 in0.0 mm 0.00 in0.0 mm 0.00 in0.0 mm
05:35 AM 71.6°F22.0°C 71.3°F21.8°C 99% Calm Calm 5.2 mph8.4 kmh 29.00 in982.1 mb 0.00 in0.0 mm 0.00 in0.0 mm 0.00 in0.0 mm
05:34 AM 71.6°F22.0°C 71.3°F21.8°C 99% Calm Calm 5.2 mph8.4 kmh 29.00 in982.1 mb 0.00 in0.0 mm 0.00 in0.0 mm 0.00 in0.0 mm
05:33 AM 71.6°F22.0°C 71.3°F21.8°C 99% Calm Calm 5.2 mph8.4 kmh 29.00 in982.1 mb 0.00 in0.0 mm 0.00 in0.0 mm 0.00 in0.0 mm
05:32 AM 71.6°F22.0°C 71.3°F21.8°C 99% Calm Calm 5.2 mph8.4 kmh 29.00 in982.1 mb 0.00 in0.0 mm 0.00 in0.0 mm 0.00 in0.0 mm
05:31 AM 71.6°F22.0°C 71.3°F21.8°C 99% Calm Calm 5.2 mph8.4 kmh 29.00 in982.1 mb 0.00 in0.0 mm 0.00 in0.0 mm 0.00 in0.0 mm
05:30 AM 71.6°F22.0°C 71.3°F21.8°C 99% 3.0 mph WSW4.8 kmh WSW 5.2 mph8.4 kmh 29.00 in982.1 mb 0.00 in0.0 mm 0.00 in0.0 mm 0.00 in0.0 mm
05:29 AM 71.6°F22.0°C 71.3°F21.8°C 99% 3.0 mph WSW4.8 kmh WSW 5.2 mph8.4 kmh 29.00 in982.1 mb 0.00 in0.0 mm 0.00 in0.0 mm 0.00 in0.0 mm
05:28 AM 71.6°F22.0°C 70.9°F21.6°C 98% 3.0 mph WSW4.8 kmh WSW 4.5 mph7.2 kmh 29.00 in982.1 mb 0.00 in0.0 mm 0.00 in0.0 mm 0.00 in0.0 mm
05:27 AM 71.6°F22.0°C 70.9°F21.6°C 98% Calm Calm 4.5 mph7.2 kmh 29.00 in982.1 mb 0.00 in0.0 mm 0.00 in0.0 mm 0.00 in0.0 mm
05:26 AM 71.6°F22.0°C 70.9°F21.6°C 98% Calm Calm 4.5 mph7.2 kmh 29.00 in982.1 mb 0.00 in0.0 mm 0.00 in0.0 mm 0.00 in0.0 mm
05:25 AM 71.6°F22.0°C 70.9°F21.6°C 98% Calm Calm 4.5 mph7.2 kmh 29.00 in982.1 mb 0.00 in0.0 mm 0.00 in0.0 mm 0.00 in0.0 mm
05:24 AM 71.6°F22.0°C 70.9°F21.6°C 98% Calm Calm 4.5 mph7.2 kmh 29.00 in982.1 mb 0.00 in0.0 mm 0.00 in0.0 mm 0.00 in0.0 mm
05:23 AM 71.6°F22.0°C 70.9°F21.6°C 98% Calm Calm 4.5 mph7.2 kmh 29.00 in982.1 mb 0.00 in0.0 mm 0.00 in0.0 mm 0.00 in0.0 mm
05:22 AM 71.6°F22.0°C 70.9°F21.6°C 98% Calm Calm 4.5 mph7.2 kmh 29.00 in982.1 mb 0.00 in0.0 mm 0.00 in0.0 mm 0.00 in0.0 mm
05:21 AM 71.6°F22.0°C 71.0°F21.7°C 98% Calm Calm 4.5 mph7.2 kmh 29.00 in982.1 mb 0.00 in0.0 mm 0.00 in0.0 mm 0.00 in0.0 mm
05:20 AM 71.6°F22.0°C 71.0°F21.7°C 98% Calm Calm 4.5 mph7.2 kmh 29.00 in982.1 mb 0.00 in0.0 mm 0.00 in0.0 mm 0.00 in0.0 mm
05:19 AM 71.6°F22.0°C 71.0°F21.7°C 98% Calm Calm 4.5 mph7.2 kmh 29.00 in982.1 mb 0.00 in0.0 mm 0.00 in0.0 mm 0.00 in0.0 mm
05:18 AM 71.6°F22.0°C 71.0°F21.7°C 98% Calm Calm 4.5 mph7.2 kmh 29.00 in982.1 mb 0.00 in0.0 mm 0.00 in0.0 mm 0.00 in0.0 mm
05:17 AM 71.6°F22.0°C 71.0°F21.7°C 98% Calm Calm 4.5 mph7.2 kmh 29.00 in982.1 mb 0.00 in0.0 mm 0.00 in0.0 mm 0.00 in0.0 mm
05:16 AM 71.6°F22.0°C 71.0°F21.7°C 98% Calm Calm 4.5 mph7.2 kmh 29.00 in982.1 mb 0.00 in0.0 mm 0.00 in0.0 mm 0.00 in0.0 mm
05:15 AM 71.8°F22.1°C 71.2°F21.8°C 98% Calm Calm 3.9 mph6.3 kmh 29.00 in982.1 mb 0.00 in0.0 mm 0.00 in0.0 mm 0.00 in0.0 mm
05:14 AM 71.8°F22.1°C 71.2°F21.8°C 98% Calm Calm 4.5 mph7.2 kmh 29.00 in982.1 mb 0.00 in0.0 mm 0.00 in0.0 mm 0.00 in0.0 mm
05:13 AM 71.8°F22.1°C 71.2°F21.8°C 98% Calm Calm 4.5 mph7.2 kmh 29.00 in982.1 mb 0.00 in0.0 mm 0.00 in0.0 mm 0.00 in0.0 mm
05:12 AM 71.8°F22.1°C 71.2°F21.8°C 98% Calm Calm 4.5 mph7.2 kmh 29.00 in982.1 mb 0.00 in0.0 mm 0.00 in0.0 mm 0.00 in0.0 mm
05:11 AM 71.8°F22.1°C 71.2°F21.8°C 98% Calm Calm 4.5 mph7.2 kmh 29.00 in982.1 mb 0.00 in0.0 mm 0.00 in0.0 mm 0.00 in0.0 mm
05:10 AM 71.8°F22.1°C 71.2°F21.8°C 98% Calm Calm 4.5 mph7.2 kmh 29.00 in982.1 mb 0.00 in0.0 mm 0.00 in0.0 mm 0.00 in0.0 mm
05:09 AM 71.8°F22.1°C 71.2°F21.8°C 98% Calm Calm 4.5 mph7.2 kmh 29.00 in982.1 mb 0.00 in0.0 mm 0.00 in0.0 mm 0.00 in0.0 mm
05:08 AM 71.8°F22.1°C 71.2°F21.8°C 98% Calm Calm 4.5 mph7.2 kmh 29.00 in982.1 mb 0.00 in0.0 mm 0.00 in0.0 mm 0.00 in0.0 mm
05:07 AM 71.8°F22.1°C 71.2°F21.8°C 98% Calm Calm 4.5 mph7.2 kmh 29.00 in982.1 mb 0.00 in0.0 mm 0.00 in0.0 mm 0.00 in0.0 mm
05:06 AM 71.8°F22.1°C 71.2°F21.8°C 98% Calm Calm 4.5 mph7.2 kmh 29.00 in982.1 mb 0.00 in0.0 mm 0.00 in0.0 mm 0.00 in0.0 mm
05:05 AM 71.8°F22.1°C 71.2°F21.8°C 98% Calm Calm 4.5 mph7.2 kmh 29.00 in982.1 mb 0.00 in0.0 mm 0.00 in0.0 mm 0.00 in0.0 mm
05:04 AM 71.8°F22.1°C 71.2°F21.8°C 98% Calm Calm 3.2 mph5.1 kmh 29.00 in982.1 mb 0.00 in0.0 mm 0.00 in0.0 mm 0.00 in0.0 mm
05:03 AM 71.8°F22.1°C 71.2°F21.8°C 98% Calm Calm 3.9 mph6.3 kmh 29.00 in982.1 mb 0.00 in0.0 mm 0.00 in0.0 mm 0.00 in0.0 mm
05:02 AM 71.8°F22.1°C 71.2°F21.8°C 98% Calm Calm 3.9 mph6.3 kmh 29.00 in982.1 mb 0.00 in0.0 mm 0.00 in0.0 mm 0.00 in0.0 mm
05:01 AM 71.8°F22.1°C 71.2°F21.8°C 98% Calm Calm 3.9 mph6.3 kmh 29.00 in982.1 mb 0.00 in0.0 mm 0.00 in0.0 mm 0.00 in0.0 mm
05:00 AM 71.8°F22.1°C 71.2°F21.8°C 98% Calm Calm 3.9 mph6.3 kmh 29.00 in982.1 mb 0.00 in0.0 mm 0.00 in0.0 mm 0.00 in0.0 mm
04:59 AM 71.8°F22.1°C 71.2°F21.8°C 98% Calm Calm 3.9 mph6.3 kmh 29.00 in982.1 mb 0.00 in0.0 mm 0.00 in0.0 mm 0.00 in0.0 mm
04:58 AM 71.8°F22.1°C 71.2°F21.8°C 98% Calm Calm 4.5 mph7.2 kmh 29.00 in982.1 mb 0.00 in0.0 mm 0.00 in0.0 mm 0.00 in0.0 mm
04:57 AM 71.8°F22.1°C 71.2°F21.8°C 98% Calm Calm 4.5 mph7.2 kmh 29.00 in982.1 mb 0.00 in0.0 mm 0.00 in0.0 mm 0.00 in0.0 mm
04:56 AM 71.8°F22.1°C 71.2°F21.8°C 98% Calm Calm 4.5 mph7.2 kmh 29.00 in982.1 mb 0.00 in0.0 mm 0.00 in0.0 mm 0.00 in0.0 mm
04:55 AM 71.8°F22.1°C 71.2°F21.8°C 98% Calm Calm 4.5 mph7.2 kmh 29.00 in982.1 mb 0.00 in0.0 mm 0.00 in0.0 mm 0.00 in0.0 mm
04:54 AM 71.8°F22.1°C 71.2°F21.8°C 98% Calm Calm 4.5 mph7.2 kmh 29.00 in982.1 mb 0.00 in0.0 mm 0.00 in0.0 mm 0.00 in0.0 mm
04:53 AM 71.8°F22.1°C 71.2°F21.8°C 98% Calm Calm 5.2 mph8.4 kmh 29.00 in982.1 mb 0.00 in0.0 mm 0.00 in0.0 mm 0.00 in0.0 mm
04:52 AM 71.8°F22.1°C 71.2°F21.8°C 98% Calm Calm 5.2 mph8.4 kmh 29.00 in982.1 mb 0.00 in0.0 mm 0.00 in0.0 mm 0.00 in0.0 mm
04:51 AM 71.8°F22.1°C 71.2°F21.8°C 98% Calm Calm 5.2 mph8.4 kmh 29.00 in982.1 mb 0.00 in0.0 mm 0.00 in0.0 mm 0.00 in0.0 mm
04:50 AM 71.8°F22.1°C 71.2°F21.8°C 98% Calm Calm 5.2 mph8.4 kmh 29.00 in982.1 mb 0.00 in0.0 mm 0.00 in0.0 mm 0.00 in0.0 mm
04:49 AM 71.8°F22.1°C 71.2°F21.8°C 98% Calm Calm 5.2 mph8.4 kmh 29.00 in982.1 mb 0.00 in0.0 mm 0.00 in0.0 mm 0.00 in0.0 mm
04:48 AM 71.8°F22.1°C 71.2°F21.8°C 98% Calm Calm 5.2 mph8.4 kmh 29.00 in982.1 mb 0.00 in0.0 mm 0.00 in0.0 mm 0.00 in0.0 mm
04:47 AM 71.8°F22.1°C 71.2°F21.8°C 98% Calm Calm 5.2 mph8.4 kmh 29.00 in982.1 mb 0.00 in0.0 mm 0.00 in0.0 mm 0.00 in0.0 mm
04:46 AM 71.8°F22.1°C 71.2°F21.8°C 98% Calm Calm 5.2 mph8.4 kmh 29.00 in982.1 mb 0.00 in0.0 mm 0.00 in0.0 mm 0.00 in0.0 mm
04:45 AM 71.8°F22.1°C 71.2°F21.8°C 98% Calm Calm 5.2 mph8.4 kmh 29.00 in982.1 mb 0.00 in0.0 mm 0.00 in0.0 mm 0.00 in0.0 mm
04:44 AM 71.8°F22.1°C 71.2°F21.8°C 98% Calm Calm 5.8 mph9.3 kmh 29.00 in982.1 mb 0.00 in0.0 mm 0.00 in0.0 mm 0.00 in0.0 mm
04:43 AM 71.8°F22.1°C 71.2°F21.8°C 98% 3.0 mph W4.8 kmh W 5.8 mph9.3 kmh 29.00 in982.1 mb 0.00 in0.0 mm 0.00 in0.0 mm 0.00 in0.0 mm
04:42 AM 71.8°F22.1°C 71.2°F21.8°C 98% 3.0 mph W4.8 kmh W 5.8 mph9.3 kmh 29.00 in982.1 mb 0.00 in0.0 mm 0.00 in0.0 mm 0.00 in0.0 mm
04:41 AM 71.8°F22.1°C 71.2°F21.8°C 98% 3.0 mph W4.8 kmh W 5.8 mph9.3 kmh 29.00 in982.1 mb 0.00 in0.0 mm 0.00 in0.0 mm 0.00 in0.0 mm
04:40 AM 71.8°F22.1°C 71.2°F21.8°C 98% Calm Calm 7.1 mph11.4 kmh 29.00 in982.1 mb 0.00 in0.0 mm 0.00 in0.0 mm 0.00 in0.0 mm
04:39 AM 71.8°F22.1°C 71.2°F21.8°C 98% Calm Calm 7.1 mph11.4 kmh 29.00 in982.1 mb 0.00 in0.0 mm 0.00 in0.0 mm 0.00 in0.0 mm
04:38 AM 71.8°F22.1°C 71.2°F21.8°C 98% Calm Calm 7.1 mph11.4 kmh 29.00 in982.1 mb 0.00 in0.0 mm 0.00 in0.0 mm 0.00 in0.0 mm
04:37 AM 71.8°F22.1°C 71.2°F21.8°C 98% 3.7 mph W6.0 kmh W 7.1 mph11.4 kmh 29.00 in982.1 mb 0.00 in0.0 mm 0.00 in0.0 mm 0.00 in0.0 mm
04:36 AM 71.8°F22.1°C 71.2°F21.8°C 98% 3.7 mph W6.0 kmh W 7.1 mph11.4 kmh 29.00 in982.1 mb 0.00 in0.0 mm 0.00 in0.0 mm 0.00 in0.0 mm
04:35 AM 71.8°F22.1°C 71.2°F21.8°C 98% 3.4 mph WSW5.5 kmh WSW 7.1 mph11.4 kmh 29.00 in982.1 mb 0.00 in0.0 mm 0.00 in0.0 mm 0.00 in0.0 mm
04:34 AM 71.8°F22.1°C 71.2°F21.8°C 98% 3.0 mph WSW4.8 kmh WSW 7.1 mph11.4 kmh 29.00 in982.1 mb 0.00 in0.0 mm 0.00 in0.0 mm 0.00 in0.0 mm
04:33 AM 71.8°F22.1°C 71.2°F21.8°C 98% 3.0 mph WSW4.8 kmh WSW 7.1 mph11.4 kmh 29.00 in982.1 mb 0.00 in0.0 mm 0.00 in0.0 mm 0.00 in0.0 mm
04:32 AM 71.8°F22.1°C 71.2°F21.8°C 98% 3.2 mph WSW5.1 kmh WSW 8.4 mph13.5 kmh 29.00 in982.1 mb 0.00 in0.0 mm 0.00 in0.0 mm 0.00 in0.0 mm
04:31 AM 71.8°F22.1°C 71.2°F21.8°C 98% 3.4 mph WSW5.5 kmh WSW 8.4 mph13.5 kmh 29.00 in982.1 mb 0.00 in0.0 mm 0.00 in0.0 mm 0.00 in0.0 mm
04:30 AM 71.8°F22.1°C 71.2°F21.8°C 98% 3.3 mph WSW5.3 kmh WSW 8.4 mph13.5 kmh 29.00 in982.1 mb 0.00 in0.0 mm 0.00 in0.0 mm 0.00 in0.0 mm
04:29 AM 71.8°F22.1°C 71.2°F21.8°C 98% 3.0 mph WSW4.8 kmh WSW 8.4 mph13.5 kmh 29.00 in982.1 mb 0.00 in0.0 mm 0.00 in0.0 mm 0.00 in0.0 mm
04:28 AM 71.8°F22.1°C 71.2°F21.8°C 98% 3.0 mph W4.8 kmh W 8.4 mph13.5 kmh 29.00 in982.1 mb 0.00 in0.0 mm 0.00 in0.0 mm 0.00 in0.0 mm
04:27 AM 71.8°F22.1°C 71.2°F21.8°C 98% 3.0 mph WSW4.8 kmh WSW 8.4 mph13.5 kmh 29.00 in982.1 mb 0.00 in0.0 mm 0.00 in0.0 mm 0.00 in0.0 mm
04:26 AM 71.8°F22.1°C 71.2°F21.8°C 98% 3.8 mph WSW6.1 kmh WSW 8.4 mph13.5 kmh 29.00 in982.1 mb 0.00 in0.0 mm 0.00 in0.0 mm 0.00 in0.0 mm
04:25 AM 71.8°F22.1°C 71.2°F21.8°C 98% 4.1 mph WSW6.6 kmh WSW 8.4 mph13.5 kmh 29.00 in982.1 mb 0.00 in0.0 mm 0.00 in0.0 mm 0.00 in0.0 mm
04:24 AM 71.8°F22.1°C 70.9°F21.6°C 97% 4.3 mph WSW6.9 kmh WSW 8.4 mph13.5 kmh 29.00 in982.1 mb 0.00 in0.0 mm 0.00 in0.0 mm 0.00 in0.0 mm
04:23 AM 71.8°F22.1°C 70.9°F21.6°C 97% 4.0 mph WSW6.4 kmh WSW 8.4 mph13.5 kmh 29.00 in982.1 mb 0.00 in0.0 mm 0.00 in0.0 mm 0.00 in0.0 mm
04:22 AM 71.8°F22.1°C 70.9°F21.6°C 97% 4.3 mph SW6.9 kmh SW 7.1 mph11.4 kmh 29.00 in982.1 mb 0.00 in0.0 mm 0.00 in0.0 mm 0.00 in0.0 mm
04:21 AM 71.8°F22.1°C 70.9°F21.6°C 97% 4.1 mph WSW6.6 kmh WSW 7.1 mph11.4 kmh 29.00 in982.1 mb 0.00 in0.0 mm 0.00 in0.0 mm 0.00 in0.0 mm
04:20 AM 71.8°F22.1°C 70.9°F21.6°C 97% 3.9 mph WSW6.3 kmh WSW 7.1 mph11.4 kmh 29.00 in982.1 mb 0.00 in0.0 mm 0.00 in0.0 mm 0.00 in0.0 mm
04:19 AM 71.8°F22.1°C 70.9°F21.6°C 97% 3.7 mph WSW6.0 kmh WSW 7.1 mph11.4 kmh 29.00 in982.1 mb 0.00 in0.0 mm 0.00 in0.0 mm 0.00 in0.0 mm
04:18 AM 71.8°F22.1°C 70.9°F21.6°C 97% Calm Calm 7.1 mph11.4 kmh 29.00 in982.1 mb 0.00 in0.0 mm 0.00 in0.0 mm 0.00 in0.0 mm
04:17 AM 71.8°F22.1°C 70.9°F21.6°C 97% Calm Calm 7.1 mph11.4 kmh 29.00 in982.1 mb 0.00 in0.0 mm 0.00 in0.0 mm 0.00 in0.0 mm
04:16 AM 72.0°F22.2°C 71.1°F21.7°C 97% 3.0 mph W4.8 kmh W 7.1 mph11.4 kmh 29.00 in982.1 mb 0.00 in0.0 mm 0.00 in0.0 mm 0.00 in0.0 mm
04:15 AM 72.0°F22.2°C 71.1°F21.7°C 97% 3.2 mph W5.1 kmh W 7.1 mph11.4 kmh 29.00 in982.1 mb 0.00 in0.0 mm 0.00 in0.0 mm 0.00 in0.0 mm
04:13 AM 72.0°F22.2°C 71.1°F21.7°C 97% 3.6 mph W5.8 kmh W 7.8 mph12.6 kmh 29.00 in982.1 mb 0.00 in0.0 mm 0.00 in0.0 mm 0.00 in0.0 mm
04:12 AM 72.0°F22.2°C 71.1°F21.7°C 97% 4.0 mph WSW6.4 kmh WSW 7.8 mph12.6 kmh 29.00 in982.1 mb 0.00 in0.0 mm 0.00 in0.0 mm 0.00 in0.0 mm
04:11 AM 72.0°F22.2°C 71.1°F21.7°C 97% 4.2 mph WSW6.8 kmh WSW 7.8 mph12.6 kmh 29.00 in982.1 mb 0.00 in0.0 mm 0.00 in0.0 mm 0.00 in0.0 mm
04:10 AM 72.0°F22.2°C 71.1°F21.7°C 97% 3.3 mph W5.3 kmh W 9.1 mph14.6 kmh 29.00 in982.1 mb 0.00 in0.0 mm 0.00 in0.0 mm 0.00 in0.0 mm
04:09 AM 72.0°F22.2°C 71.1°F21.7°C 97% 3.0 mph W4.8 kmh W 9.1 mph14.6 kmh 29.00 in982.1 mb 0.00 in0.0 mm 0.00 in0.0 mm 0.00 in0.0 mm
04:08 AM 72.0°F22.2°C 71.1°F21.7°C 97% 3.1 mph WSW5.0 kmh WSW 10.4 mph16.7 kmh 29.00 in982.1 mb 0.00 in0.0 mm 0.00 in0.0 mm 0.00 in0.0 mm
04:07 AM 72.0°F22.2°C 71.1°F21.7°C 97% 3.6 mph W5.8 kmh W 10.4 mph16.7 kmh 29.00 in982.1 mb 0.00 in0.0 mm 0.00 in0.0 mm 0.00 in0.0 mm
04:06 AM 72.0°F22.2°C 71.1°F21.7°C 97% 3.9 mph W6.3 kmh W 10.4 mph16.7 kmh 29.00 in982.1 mb 0.00 in0.0 mm 0.00 in0.0 mm 0.00 in0.0 mm
04:05 AM 72.0°F22.2°C 71.1°F21.7°C 97% 4.2 mph W6.8 kmh W 10.4 mph16.7 kmh 29.00 in982.1 mb 0.00 in0.0 mm 0.00 in0.0 mm 0.00 in0.0 mm
04:04 AM 72.0°F22.2°C 71.1°F21.7°C 97% 4.0 mph W6.4 kmh W 10.4 mph16.7 kmh 29.00 in982.1 mb 0.00 in0.0 mm 0.00 in0.0 mm 0.00 in0.0 mm
04:03 AM 72.0°F22.2°C 71.1°F21.7°C 97% 4.5 mph WSW7.2 kmh WSW 10.4 mph16.7 kmh 29.00 in982.1 mb 0.00 in0.0 mm 0.00 in0.0 mm 0.00 in0.0 mm
04:02 AM 72.0°F22.2°C 71.1°F21.7°C 97% 4.6 mph WSW7.4 kmh WSW 10.4 mph16.7 kmh 29.00 in982.1 mb 0.00 in0.0 mm 0.00 in0.0 mm 0.00 in0.0 mm
04:01 AM 72.0°F22.2°C 71.1°F21.7°C 97% 4.8 mph W7.7 kmh W 10.4 mph16.7 kmh 29.00 in982.1 mb 0.00 in0.0 mm 0.00 in0.0 mm 0.00 in0.0 mm
04:00 AM 72.0°F22.2°C 71.1°F21.7°C 97% 5.2 mph W8.4 kmh W 10.4 mph16.7 kmh 29.00 in982.1 mb 0.00 in0.0 mm 0.00 in0.0 mm 0.00 in0.0 mm
03:59 AM 72.0°F22.2°C 71.1°F21.7°C 97% 4.6 mph W7.4 kmh W 10.4 mph16.7 kmh 29.00 in982.1 mb 0.00 in0.0 mm 0.00 in0.0 mm 0.00 in0.0 mm
03:58 AM 72.0°F22.2°C 70.7°F21.5°C 96% 4.0 mph WSW6.4 kmh WSW 9.1 mph14.6 kmh 29.00 in982.1 mb 0.00 in0.0 mm 0.00 in0.0 mm 0.00 in0.0 mm
03:57 AM 72.0°F22.2°C 70.8°F21.6°C 96% 4.4 mph WSW7.1 kmh WSW 9.1 mph14.6 kmh 29.00 in982.1 mb 0.00 in0.0 mm 0.00 in0.0 mm 0.00 in0.0 mm
03:56 AM 72.0°F22.2°C 70.8°F21.6°C 96% 4.3 mph W6.9 kmh W 9.1 mph14.6 kmh 29.00 in982.1 mb 0.00 in0.0 mm 0.00 in0.0 mm 0.00 in0.0 mm
03:55 AM 72.0°F22.2°C 70.8°F21.6°C 96% 4.2 mph W6.8 kmh W 9.1 mph14.6 kmh 29.00 in982.1 mb 0.00 in0.0 mm 0.00 in0.0 mm 0.00 in0.0 mm
03:54 AM 72.0°F22.2°C 70.8°F21.6°C 96% 4.6 mph W7.4 kmh W 8.4 mph13.5 kmh 29.00 in982.1 mb 0.00 in0.0 mm 0.00 in0.0 mm 0.00 in0.0 mm
03:53 AM 72.0°F22.2°C 70.8°F21.6°C 96% 4.6 mph W7.4 kmh W 8.4 mph13.5 kmh 29.00 in982.1 mb 0.00 in0.0 mm 0.00 in0.0 mm 0.00 in0.0 mm
03:52 AM 72.0°F22.2°C 70.8°F21.6°C 96% 3.8 mph W6.1 kmh W 8.4 mph13.5 kmh 29.00 in982.1 mb 0.00 in0.0 mm 0.00 in0.0 mm 0.00 in0.0 mm
03:51 AM 72.0°F22.2°C 70.8°F21.6°C 96% 3.5 mph W5.6 kmh W 7.8 mph12.6 kmh 29.00 in982.1 mb 0.00 in0.0 mm 0.00 in0.0 mm 0.00 in0.0 mm
03:50 AM 72.0°F22.2°C 70.8°F21.6°C 96% 3.5 mph W5.6 kmh W 7.8 mph12.6 kmh 29.00 in982.1 mb 0.00 in0.0 mm 0.00 in0.0 mm 0.00 in0.0 mm
03:49 AM 72.0°F22.2°C 70.8°F21.6°C 96% 3.0 mph WSW4.8 kmh WSW 7.8 mph12.6 kmh 29.00 in982.1 mb 0.00 in0.0 mm 0.00 in0.0 mm 0.00 in0.0 mm
03:48 AM 72.0°F22.2°C 70.8°F21.6°C 96% 3.7 mph WSW6.0 kmh WSW 7.8 mph12.6 kmh 29.00 in982.1 mb 0.00 in0.0 mm 0.00 in0.0 mm 0.00 in0.0 mm
03:47 AM 71.8°F22.1°C 70.2°F21.2°C 95% 4.0 mph W6.4 kmh W 7.8 mph12.6 kmh 29.00 in982.1 mb 0.00 in0.0 mm 0.00 in0.0 mm 0.00 in0.0 mm
03:46 AM 71.8°F22.1°C 70.2°F21.2°C 95% 3.7 mph W6.0 kmh W 7.8 mph12.6 kmh 29.00 in982.1 mb 0.00 in0.0 mm 0.00 in0.0 mm 0.00 in0.0 mm
03:45 AM 71.8°F22.1°C 70.2°F21.2°C 95% 3.3 mph W5.3 kmh W 7.8 mph12.6 kmh 29.00 in982.1 mb 0.00 in0.0 mm 0.00 in0.0 mm 0.00 in0.0 mm
03:44 AM 71.8°F22.1°C 70.2°F21.2°C 95% 3.0 mph WSW4.8 kmh WSW 8.4 mph13.5 kmh 29.00 in982.1 mb 0.00 in0.0 mm 0.00 in0.0 mm 0.00 in0.0 mm
03:43 AM 71.8°F22.1°C 70.2°F21.2°C 95% 3.1 mph WSW5.0 kmh WSW 8.4 mph13.5 kmh 29.00 in982.1 mb 0.00 in0.0 mm 0.00 in0.0 mm 0.00 in0.0 mm
03:42 AM 71.8°F22.1°C 70.2°F21.2°C 95% 3.6 mph WSW5.8 kmh WSW 9.1 mph14.6 kmh 29.00 in982.1 mb 0.00 in0.0 mm 0.00 in0.0 mm 0.00 in0.0 mm
03:41 AM 71.8°F22.1°C 70.2°F21.2°C 95% 4.0 mph WSW6.4 kmh WSW 9.1 mph14.6 kmh 29.00 in982.1 mb 0.00 in0.0 mm 0.00 in0.0 mm 0.00 in0.0 mm
03:40 AM 71.8°F22.1°C 70.2°F21.2°C 95% 4.1 mph WSW6.6 kmh WSW 9.1 mph14.6 kmh 29.00 in982.1 mb 0.00 in0.0 mm 0.00 in0.0 mm 0.00 in0.0 mm
03:39 AM 71.8°F22.1°C 70.2°F21.2°C 95% 3.5 mph W5.6 kmh W 9.1 mph14.6 kmh 29.00 in982.1 mb 0.00 in0.0 mm 0.00 in0.0 mm 0.00 in0.0 mm
03:38 AM 71.8°F22.1°C 70.2°F21.2°C 95% 3.4 mph W5.5 kmh W 9.1 mph14.6 kmh 29.00 in982.1 mb 0.00 in0.0 mm 0.00 in0.0 mm 0.00 in0.0 mm
03:37 AM 71.8°F22.1°C 70.2°F21.2°C 95% 3.7 mph WSW6.0 kmh WSW 9.1 mph14.6 kmh 29.00 in982.1 mb 0.00 in0.0 mm 0.00 in0.0 mm 0.00 in0.0 mm
03:36 AM 71.8°F22.1°C 70.2°F21.2°C 95% 4.6 mph WSW7.4 kmh WSW 9.1 mph14.6 kmh 29.00 in982.1 mb 0.00 in0.0 mm 0.00 in0.0 mm 0.00 in0.0 mm
03:35 AM 71.8°F22.1°C 70.2°F21.2°C 95% 4.9 mph WSW7.9 kmh WSW 9.1 mph14.6 kmh 29.00 in982.1 mb 0.00 in0.0 mm 0.00 in0.0 mm 0.00 in0.0 mm
03:34 AM 71.6°F22.0°C 70.0°F21.1°C 95% 4.4 mph WSW7.1 kmh WSW 9.1 mph14.6 kmh 29.00 in982.1 mb 0.00 in0.0 mm 0.00 in0.0 mm 0.00 in0.0 mm
03:33 AM 71.6°F22.0°C 70.0°F21.1°C 95% 3.9 mph WSW6.3 kmh WSW 9.1 mph14.6 kmh 29.00 in982.1 mb 0.00 in0.0 mm 0.00 in0.0 mm 0.00 in0.0 mm
03:32 AM 71.6°F22.0°C 70.0°F21.1°C 95% 3.0 mph WSW4.8 kmh WSW 5.8 mph9.3 kmh 29.00 in982.1 mb 0.00 in0.0 mm 0.00 in0.0 mm 0.00 in0.0 mm
03:31 AM 71.6°F22.0°C 70.0°F21.1°C 95% 3.0 mph WSW4.8 kmh WSW 5.8 mph9.3 kmh 29.00 in982.1 mb 0.00 in0.0 mm 0.00 in0.0 mm 0.00 in0.0 mm
03:30 AM 71.6°F22.0°C 70.0°F21.1°C 95% Calm Calm 5.8 mph9.3 kmh 28.97 in981.0 mb 0.00 in0.0 mm 0.00 in0.0 mm 0.00 in0.0 mm
03:29 AM 71.6°F22.0°C 70.0°F21.1°C 95% Calm Calm 5.8 mph9.3 kmh 28.97 in981.0 mb 0.00 in0.0 mm 0.00 in0.0 mm 0.00 in0.0 mm
03:28 AM 71.6°F22.0°C 70.0°F21.1°C 95% 3.7 mph WSW6.0 kmh WSW 5.8 mph9.3 kmh 28.97 in981.0 mb 0.00 in0.0 mm 0.00 in0.0 mm 0.00 in0.0 mm
03:27 AM 71.6°F22.0°C 70.0°F21.1°C 95% 3.7 mph WSW6.0 kmh WSW 5.8 mph9.3 kmh 28.97 in981.0 mb 0.00 in0.0 mm 0.00 in0.0 mm 0.00 in0.0 mm
03:26 AM 71.6°F22.0°C 70.0°F21.1°C 95% 3.7 mph WSW6.0 kmh WSW 7.1 mph11.4 kmh 28.97 in981.0 mb 0.00 in0.0 mm 0.00 in0.0 mm 0.00 in0.0 mm
03:25 AM 71.6°F22.0°C 70.0°F21.1°C 95% 3.0 mph W4.8 kmh W 7.1 mph11.4 kmh 28.97 in981.0 mb 0.00 in0.0 mm 0.00 in0.0 mm 0.00 in0.0 mm
03:24 AM 71.6°F22.0°C 70.0°F21.1°C 95% 3.1 mph W5.0 kmh W 7.1 mph11.4 kmh 28.97 in981.0 mb 0.00 in0.0 mm 0.00 in0.0 mm 0.00 in0.0 mm
03:23 AM 71.6°F22.0°C 70.0°F21.1°C 95% 3.4 mph WSW5.5 kmh WSW 7.1 mph11.4 kmh 28.97 in981.0 mb 0.00 in0.0 mm 0.00 in0.0 mm 0.00 in0.0 mm
03:21 AM 71.4°F21.9°C 69.8°F21.0°C 95% Calm Calm 7.1 mph11.4 kmh 28.97 in981.0 mb 0.00 in0.0 mm 0.00 in0.0 mm 0.00 in0.0 mm
03:20 AM 71.4°F21.9°C 69.8°F21.0°C 95% 3.7 mph W6.0 kmh W 7.1 mph11.4 kmh 28.97 in981.0 mb 0.00 in0.0 mm 0.00 in0.0 mm 0.00 in0.0 mm
03:19 AM 71.4°F21.9°C 69.8°F21.0°C 95% 3.7 mph WSW6.0 kmh WSW 7.1 mph11.4 kmh 28.97 in981.0 mb 0.00 in0.0 mm 0.00 in0.0 mm 0.00 in0.0 mm
03:18 AM 71.4°F21.9°C 69.8°F21.0°C 95% 3.7 mph WSW6.0 kmh WSW 7.1 mph11.4 kmh 28.97 in981.0 mb 0.00 in0.0 mm 0.00 in0.0 mm 0.00 in0.0 mm
03:17 AM 71.4°F21.9°C 69.8°F21.0°C 95% Calm Calm 7.1 mph11.4 kmh 28.97 in981.0 mb 0.00 in0.0 mm 0.00 in0.0 mm 0.00 in0.0 mm
03:16 AM 71.4°F21.9°C 69.8°F21.0°C 95% 3.0 mph W4.8 kmh W 5.8 mph9.3 kmh 28.97 in981.0 mb 0.00 in0.0 mm 0.00 in0.0 mm 0.00 in0.0 mm
03:15 AM 71.4°F21.9°C 69.8°F21.0°C 95% 3.0 mph WSW4.8 kmh WSW 5.8 mph9.3 kmh 28.97 in981.0 mb 0.00 in0.0 mm 0.00 in0.0 mm 0.00 in0.0 mm
03:14 AM 71.4°F21.9°C 69.8°F21.0°C 95% 3.0 mph WSW4.8 kmh WSW 5.8 mph9.3 kmh 28.97 in981.0 mb 0.00 in0.0 mm 0.00 in0.0 mm 0.00 in0.0 mm
03:13 AM 71.4°F21.9°C 69.8°F21.0°C 95% 3.0 mph WSW4.8 kmh WSW 5.8 mph9.3 kmh 28.97 in981.0 mb 0.00 in0.0 mm 0.00 in0.0 mm 0.00 in0.0 mm
03:12 AM 71.4°F21.9°C 69.8°F21.0°C 95% Calm Calm 7.8 mph12.6 kmh 28.97 in981.0 mb 0.00 in0.0 mm 0.00 in0.0 mm 0.00 in0.0 mm
03:11 AM 71.4°F21.9°C 69.8°F21.0°C 95% Calm Calm 7.8 mph12.6 kmh 28.97 in981.0 mb 0.00 in0.0 mm 0.00 in0.0 mm 0.00 in0.0 mm
03:10 AM 71.4°F21.9°C 69.8°F21.0°C 95% 3.8 mph WSW6.1 kmh WSW 7.8 mph12.6 kmh 28.97 in981.0 mb 0.00 in0.0 mm 0.00 in0.0 mm 0.00 in0.0 mm
03:09 AM 71.4°F21.9°C 69.9°F21.1°C 95% 3.8 mph W6.1 kmh W 7.8 mph12.6 kmh 28.97 in981.0 mb 0.00 in0.0 mm 0.00 in0.0 mm 0.00 in0.0 mm
03:08 AM 71.4°F21.9°C 69.9°F21.1°C 95% 3.5 mph W5.6 kmh W 7.8 mph12.6 kmh 28.97 in981.0 mb 0.00 in0.0 mm 0.00 in0.0 mm 0.00 in0.0 mm
03:07 AM 71.4°F21.9°C 69.9°F21.1°C 95% 3.0 mph WSW4.8 kmh WSW 7.8 mph12.6 kmh 28.97 in981.0 mb 0.00 in0.0 mm 0.00 in0.0 mm 0.00 in0.0 mm
03:06 AM 71.4°F21.9°C 69.9°F21.1°C 95% 3.1 mph WSW5.0 kmh WSW 7.8 mph12.6 kmh 28.97 in981.0 mb 0.00 in0.0 mm 0.00 in0.0 mm 0.00 in0.0 mm
03:05 AM 71.4°F21.9°C 69.9°F21.1°C 95% 3.8 mph W6.1 kmh W 7.8 mph12.6 kmh 28.97 in981.0 mb 0.00 in0.0 mm 0.00 in0.0 mm 0.00 in0.0 mm
03:04 AM 71.2°F21.8°C 69.7°F20.9°C 95% 4.0 mph W6.4 kmh W 7.8 mph12.6 kmh 28.97 in981.0 mb 0.00 in0.0 mm 0.00 in0.0 mm 0.00 in0.0 mm
03:03 AM 71.2°F21.8°C 69.3°F20.7°C 94% 4.0 mph W6.4 kmh W 7.8 mph12.6 kmh 28.97 in981.0 mb 0.00 in0.0 mm 0.00 in0.0 mm 0.00 in0.0 mm
03:02 AM 71.2°F21.8°C 69.3°F20.7°C 94% 3.3 mph WSW5.3 kmh WSW 7.8 mph12.6 kmh 28.97 in981.0 mb 0.00 in0.0 mm 0.00 in0.0 mm 0.00 in0.0 mm
03:01 AM 71.2°F21.8°C 69.3°F20.7°C 94% 3.4 mph WSW5.5 kmh WSW 7.8 mph12.6 kmh 28.97 in981.0 mb 0.00 in0.0 mm 0.00 in0.0 mm 0.00 in0.0 mm
03:00 AM 71.2°F21.8°C 69.3°F20.7°C 94% 3.5 mph W5.6 kmh W 7.8 mph12.6 kmh 28.97 in981.0 mb 0.00 in0.0 mm 0.00 in0.0 mm 0.00 in0.0 mm
02:59 AM 71.2°F21.8°C 69.3°F20.7°C 94% 3.4 mph W5.5 kmh W 7.8 mph12.6 kmh 28.97 in981.0 mb 0.00 in0.0 mm 0.00 in0.0 mm 0.00 in0.0 mm
02:58 AM 71.1°F21.7°C 69.2°F20.7°C 94% 3.6 mph W5.8 kmh W 7.8 mph12.6 kmh 28.97 in981.0 mb 0.00 in0.0 mm 0.00 in0.0 mm 0.00 in0.0 mm
02:57 AM 71.1°F21.7°C 69.2°F20.7°C 94% 3.7 mph WSW6.0 kmh WSW 7.8 mph12.6 kmh 28.97 in981.0 mb 0.00 in0.0 mm 0.00 in0.0 mm 0.00 in0.0 mm
02:56 AM 71.1°F21.7°C 69.2°F20.7°C 94% 3.7 mph WSW6.0 kmh WSW 5.8 mph9.3 kmh 28.97 in981.0 mb 0.00 in0.0 mm 0.00 in0.0 mm 0.00 in0.0 mm
02:55 AM 71.1°F21.7°C 69.2°F20.7°C 94% Calm Calm 5.8 mph9.3 kmh 28.97 in981.0 mb 0.00 in0.0 mm 0.00 in0.0 mm 0.00 in0.0 mm
02:54 AM 71.1°F21.7°C 69.2°F20.7°C 94% Calm Calm 5.8 mph9.3 kmh 28.97 in981.0 mb 0.00 in0.0 mm 0.00 in0.0 mm 0.00 in0.0 mm
02:53 AM 71.1°F21.7°C 69.2°F20.7°C 94% Calm Calm 5.8 mph9.3 kmh 28.97 in981.0 mb 0.00 in0.0 mm 0.00 in0.0 mm 0.00 in0.0 mm
02:52 AM 71.1°F21.7°C 69.2°F20.7°C 94% Calm Calm 5.8 mph9.3 kmh 28.97 in981.0 mb 0.00 in0.0 mm 0.00 in0.0 mm 0.00 in0.0 mm
02:51 AM 71.1°F21.7°C 69.2°F20.7°C 94% Calm Calm 5.8 mph9.3 kmh 28.97 in981.0 mb 0.00 in0.0 mm 0.00 in0.0 mm 0.00 in0.0 mm
02:50 AM 71.1°F21.7°C 69.2°F20.7°C 94% Calm Calm 5.8 mph9.3 kmh 28.97 in981.0 mb 0.00 in0.0 mm 0.00 in0.0 mm 0.00 in0.0 mm
02:49 AM 71.1°F21.7°C 69.2°F20.7°C 94% 3.0 mph WSW4.8 kmh WSW 5.8 mph9.3 kmh 28.97 in981.0 mb 0.00 in0.0 mm 0.00 in0.0 mm 0.00 in0.0 mm
02:48 AM 71.1°F21.7°C 69.2°F20.7°C 94% 3.0 mph WSW4.8 kmh WSW 5.8 mph9.3 kmh 28.97 in981.0 mb 0.00 in0.0 mm 0.00 in0.0 mm 0.00 in0.0 mm
02:47 AM 71.1°F21.7°C 69.2°F20.7°C 94% 3.0 mph WSW4.8 kmh WSW 5.8 mph9.3 kmh 28.97 in981.0 mb 0.00 in0.0 mm 0.00 in0.0 mm 0.00 in0.0 mm
02:46 AM 71.1°F21.7°C 69.2°F20.7°C 94% 3.0 mph WSW4.8 kmh WSW 5.8 mph9.3 kmh 28.97 in981.0 mb 0.00 in0.0 mm 0.00 in0.0 mm 0.00 in0.0 mm
02:45 AM 71.1°F21.7°C 69.2°F20.7°C 94% Calm Calm 4.5 mph7.2 kmh 28.97 in981.0 mb 0.00 in0.0 mm 0.00 in0.0 mm 0.00 in0.0 mm
02:44 AM 70.9°F21.6°C 69.0°F20.6°C 94% Calm Calm 4.5 mph7.2 kmh 28.97 in981.0 mb 0.00 in0.0 mm 0.00 in0.0 mm 0.00 in0.0 mm
02:43 AM 71.1°F21.7°C 69.2°F20.7°C 94% Calm Calm 4.5 mph7.2 kmh 28.97 in981.0 mb 0.00 in0.0 mm 0.00 in0.0 mm 0.00 in0.0 mm
02:42 AM 70.9°F21.6°C 69.0°F20.6°C 94% Calm Calm 3.9 mph6.3 kmh 28.97 in981.0 mb 0.00 in0.0 mm 0.00 in0.0 mm 0.00 in0.0 mm
02:41 AM 70.9°F21.6°C 68.7°F20.4°C 93% Calm Calm 3.9 mph6.3 kmh 28.97 in981.0 mb 0.00 in0.0 mm 0.00 in0.0 mm 0.00 in0.0 mm
02:40 AM 70.9°F21.6°C 68.7°F20.4°C 93% Calm Calm 5.2 mph8.4 kmh 28.97 in981.0 mb 0.00 in0.0 mm 0.00 in0.0 mm 0.00 in0.0 mm
02:39 AM 71.1°F21.7°C 68.9°F20.5°C 93% Calm Calm 5.2 mph8.4 kmh 28.97 in981.0 mb 0.00 in0.0 mm 0.00 in0.0 mm 0.00 in0.0 mm
02:38 AM 71.1°F21.7°C 68.9°F20.5°C 93% Calm Calm 5.2 mph8.4 kmh 28.97 in981.0 mb 0.00 in0.0 mm 0.00 in0.0 mm 0.00 in0.0 mm
02:37 AM 70.9°F21.6°C 68.7°F20.4°C 93% Calm Calm 5.2 mph8.4 kmh 28.97 in981.0 mb 0.00 in0.0 mm 0.00 in0.0 mm 0.00 in0.0 mm
02:36 AM 71.1°F21.7°C 68.9°F20.5°C 93% Calm Calm 5.2 mph8.4 kmh 28.97 in981.0 mb 0.00 in0.0 mm 0.00 in0.0 mm 0.00 in0.0 mm
02:35 AM 71.1°F21.7°C 68.9°F20.5°C 93% Calm Calm 5.2 mph8.4 kmh 28.97 in981.0 mb 0.00 in0.0 mm 0.00 in0.0 mm 0.00 in0.0 mm
02:34 AM 71.1°F21.7°C 68.9°F20.5°C 93% Calm Calm 5.2 mph8.4 kmh 28.97 in981.0 mb 0.00 in0.0 mm 0.00 in0.0 mm 0.00 in0.0 mm
02:33 AM 71.1°F21.7°C 68.9°F20.5°C 93% Calm Calm 5.2 mph8.4 kmh 28.97 in981.0 mb 0.00 in0.0 mm 0.00 in0.0 mm 0.00 in0.0 mm
02:32 AM 71.1°F21.7°C 68.9°F20.5°C 93% 3.0 mph WSW4.8 kmh WSW 5.8 mph9.3 kmh 28.97 in981.0 mb 0.00 in0.0 mm 0.00 in0.0 mm 0.00 in0.0 mm
02:31 AM 71.1°F21.7°C 68.9°F20.5°C 93% 3.0 mph WSW4.8 kmh WSW 5.8 mph9.3 kmh 28.97 in981.0 mb 0.00 in0.0 mm 0.00 in0.0 mm 0.00 in0.0 mm
02:30 AM 71.1°F21.7°C 68.9°F20.5°C 93% 3.0 mph WSW4.8 kmh WSW 5.8 mph9.3 kmh 28.97 in981.0 mb 0.00 in0.0 mm 0.00 in0.0 mm 0.00 in0.0 mm
02:29 AM 71.1°F21.7°C 68.9°F20.5°C 93% 3.0 mph WSW4.8 kmh WSW 5.8 mph9.3 kmh 28.97 in981.0 mb 0.00 in0.0 mm 0.00 in0.0 mm 0.00 in0.0 mm
02:28 AM 71.1°F21.7°C 68.9°F20.5°C 93% 3.0 mph WSW4.8 kmh WSW 5.8 mph9.3 kmh 28.97 in981.0 mb 0.00 in0.0 mm 0.00 in0.0 mm 0.00 in0.0 mm
02:27 AM 71.1°F21.7°C 68.9°F20.5°C 93% 3.0 mph WSW4.8 kmh WSW 5.8 mph9.3 kmh 28.97 in981.0 mb 0.00 in0.0 mm 0.00 in0.0 mm 0.00 in0.0 mm
02:26 AM 71.1°F21.7°C 68.9°F20.5°C 93% Calm Calm 5.8 mph9.3 kmh 28.97 in981.0 mb 0.00 in0.0 mm 0.00 in0.0 mm 0.00 in0.0 mm
02:25 AM 71.1°F21.7°C 68.9°F20.5°C 93% Calm Calm 5.8 mph9.3 kmh 28.97 in981.0 mb 0.00 in0.0 mm 0.00 in0.0 mm 0.00 in0.0 mm
02:24 AM 71.2°F21.8°C 69.0°F20.6°C 93% Calm Calm 5.8 mph9.3 kmh 28.97 in981.0 mb 0.00 in0.0 mm 0.00 in0.0 mm 0.00 in0.0 mm
02:23 AM 71.2°F21.8°C 69.0°F20.6°C 93% Calm Calm 5.8 mph9.3 kmh 28.97 in981.0 mb 0.00 in0.0 mm 0.00 in0.0 mm 0.00 in0.0 mm
02:22 AM 71.2°F21.8°C 69.0°F20.6°C 93% Calm Calm 5.2 mph8.4 kmh 28.97 in981.0 mb 0.00 in0.0 mm 0.00 in0.0 mm 0.00 in0.0 mm
02:21 AM 71.2°F21.8°C 69.0°F20.6°C 93% Calm Calm 5.2 mph8.4 kmh 28.97 in981.0 mb 0.00 in0.0 mm 0.00 in0.0 mm 0.00 in0.0 mm
02:20 AM 71.2°F21.8°C 69.0°F20.6°C 93% Calm Calm 5.2 mph8.4 kmh 28.97 in981.0 mb 0.00 in0.0 mm 0.00 in0.0 mm 0.00 in0.0 mm
02:19 AM 71.2°F21.8°C 69.0°F20.6°C 93% Calm Calm 7.8 mph12.6 kmh 28.97 in981.0 mb 0.00 in0.0 mm 0.00 in0.0 mm 0.00 in0.0 mm
02:18 AM 71.2°F21.8°C 69.0°F20.6°C 93% Calm Calm 7.8 mph12.6 kmh 28.97 in981.0 mb 0.00 in0.0 mm 0.00 in0.0 mm 0.00 in0.0 mm
02:17 AM 71.2°F21.8°C 69.0°F20.6°C 93% 3.0 mph WSW4.8 kmh WSW 7.8 mph12.6 kmh 28.97 in981.0 mb 0.00 in0.0 mm 0.00 in0.0 mm 0.00 in0.0 mm
02:16 AM 71.2°F21.8°C 69.0°F20.6°C 93% 3.0 mph WSW4.8 kmh WSW 7.8 mph12.6 kmh 28.97 in981.0 mb 0.00 in0.0 mm 0.00 in0.0 mm 0.00 in0.0 mm
02:15 AM 71.2°F21.8°C 69.0°F20.6°C 93% 3.3 mph WSW5.3 kmh WSW 7.8 mph12.6 kmh 28.97 in981.0 mb 0.00 in0.0 mm 0.00 in0.0 mm 0.00 in0.0 mm
02:14 AM 71.2°F21.8°C 69.0°F20.6°C 93% 3.7 mph WSW6.0 kmh WSW 7.8 mph12.6 kmh 28.97 in981.0 mb 0.00 in0.0 mm 0.00 in0.0 mm 0.00 in0.0 mm
02:13 AM 71.4°F21.9°C 69.2°F20.7°C 93% Calm Calm 7.8 mph12.6 kmh 28.97 in981.0 mb 0.00 in0.0 mm 0.00 in0.0 mm 0.00 in0.0 mm
02:12 AM 71.4°F21.9°C 69.2°F20.7°C 93% 4.3 mph SW6.9 kmh SW 7.8 mph12.6 kmh 28.97 in981.0 mb 0.00 in0.0 mm 0.00 in0.0 mm 0.00 in0.0 mm
02:11 AM 71.4°F21.9°C 69.2°F20.7°C 93% 3.9 mph SW6.3 kmh SW 7.8 mph12.6 kmh 28.97 in981.0 mb 0.00 in0.0 mm 0.00 in0.0 mm 0.00 in0.0 mm
02:10 AM 71.4°F21.9°C 69.2°F20.7°C 93% 3.4 mph SW5.5 kmh SW 7.8 mph12.6 kmh 28.97 in981.0 mb 0.00 in0.0 mm 0.00 in0.0 mm 0.00 in0.0 mm
02:09 AM 71.4°F21.9°C 69.2°F20.7°C 93% 3.2 mph SW5.1 kmh SW 5.2 mph8.4 kmh 28.97 in981.0 mb 0.00 in0.0 mm 0.00 in0.0 mm 0.00 in0.0 mm
02:08 AM 71.4°F21.9°C 69.2°F20.7°C 93% 3.4 mph SW5.5 kmh SW 5.2 mph8.4 kmh 28.97 in981.0 mb 0.00 in0.0 mm 0.00 in0.0 mm 0.00 in0.0 mm
02:07 AM 71.4°F21.9°C 69.2°F20.7°C 93% 3.7 mph SW6.0 kmh SW 5.2 mph8.4 kmh 28.97 in981.0 mb 0.00 in0.0 mm 0.00 in0.0 mm 0.00 in0.0 mm
02:06 AM 71.4°F21.9°C 69.2°F20.7°C 93% 3.7 mph SW6.0 kmh SW 5.2 mph8.4 kmh 28.97 in981.0 mb 0.00 in0.0 mm 0.00 in0.0 mm 0.00 in0.0 mm
02:05 AM 71.4°F21.9°C 69.2°F20.7°C 93% Calm Calm 5.2 mph8.4 kmh 28.97 in981.0 mb 0.00 in0.0 mm 0.00 in0.0 mm 0.00 in0.0 mm
02:04 AM 71.4°F21.9°C 69.2°F20.7°C 93% Calm Calm 5.2 mph8.4 kmh 28.97 in981.0 mb 0.00 in0.0 mm 0.00 in0.0 mm 0.00 in0.0 mm
02:03 AM 71.4°F21.9°C 69.2°F20.7°C 93% Calm Calm 5.2 mph8.4 kmh 28.97 in981.0 mb 0.00 in0.0 mm 0.00 in0.0 mm 0.00 in0.0 mm
02:02 AM 71.4°F21.9°C 69.2°F20.7°C 93% Calm Calm 5.2 mph8.4 kmh 28.97 in981.0 mb 0.00 in0.0 mm 0.00 in0.0 mm 0.00 in0.0 mm
02:01 AM 71.4°F21.9°C 69.2°F20.7°C 93% Calm Calm 5.2 mph8.4 kmh 28.97 in981.0 mb 0.00 in0.0 mm 0.00 in0.0 mm 0.00 in0.0 mm
02:00 AM 71.4°F21.9°C 69.2°F20.7°C 93% Calm Calm 5.2 mph8.4 kmh 28.97 in981.0 mb 0.00 in0.0 mm 0.00 in0.0 mm 0.00 in0.0 mm
01:59 AM 71.4°F21.9°C 69.2°F20.7°C 93% Calm Calm 5.2 mph8.4 kmh 28.97 in981.0 mb 0.00 in0.0 mm 0.00 in0.0 mm 0.00 in0.0 mm
01:58 AM 71.4°F21.9°C 68.8°F20.4°C 92% Calm Calm 5.2 mph8.4 kmh 28.97 in981.0 mb 0.00 in0.0 mm 0.00 in0.0 mm 0.00 in0.0 mm
01:57 AM 71.4°F21.9°C 68.8°F20.4°C 92% Calm Calm 5.2 mph8.4 kmh 28.97 in981.0 mb 0.00 in0.0 mm 0.00 in0.0 mm 0.00 in0.0 mm
01:56 AM 71.4°F21.9°C 68.8°F20.4°C 92% Calm Calm 5.2 mph8.4 kmh 28.97 in981.0 mb 0.00 in0.0 mm 0.00 in0.0 mm 0.00 in0.0 mm
01:55 AM 71.4°F21.9°C 68.8°F20.4°C 92% Calm Calm 5.2 mph8.4 kmh 28.97 in981.0 mb 0.00 in0.0 mm 0.00 in0.0 mm 0.00 in0.0 mm
01:54 AM 71.6°F22.0°C 69.0°F20.6°C 92% Calm Calm 5.2 mph8.4 kmh 28.97 in981.0 mb 0.00 in0.0 mm 0.00 in0.0 mm 0.00 in0.0 mm
01:53 AM 71.6°F22.0°C 69.0°F20.6°C 92% Calm Calm 5.2 mph8.4 kmh 28.97 in981.0 mb 0.00 in0.0 mm 0.00 in0.0 mm 0.00 in0.0 mm
01:52 AM 71.6°F22.0°C 69.0°F20.6°C 92% 3.0 mph SW4.8 kmh SW 5.2 mph8.4 kmh 28.97 in981.0 mb 0.00 in0.0 mm 0.00 in0.0 mm 0.00 in0.0 mm
01:51 AM 71.6°F22.0°C 69.0°F20.6°C 92% 3.0 mph SW4.8 kmh SW 5.2 mph8.4 kmh 28.97 in981.0 mb 0.00 in0.0 mm 0.00 in0.0 mm 0.00 in0.0 mm
01:50 AM 71.6°F22.0°C 69.0°F20.6°C 92% Calm Calm 5.2 mph8.4 kmh 28.97 in981.0 mb 0.00 in0.0 mm 0.00 in0.0 mm 0.00 in0.0 mm
01:49 AM 71.6°F22.0°C 69.0°F20.6°C 92% Calm Calm 5.2 mph8.4 kmh 28.97 in981.0 mb 0.00 in0.0 mm 0.00 in0.0 mm 0.00 in0.0 mm
01:48 AM 71.6°F22.0°C 69.0°F20.6°C 92% Calm Calm 5.2 mph8.4 kmh 28.97 in981.0 mb 0.00 in0.0 mm 0.00 in0.0 mm 0.00 in0.0 mm
01:47 AM 71.6°F22.0°C 69.0°F20.6°C 92% Calm Calm 5.2 mph8.4 kmh 28.97 in981.0 mb 0.00 in0.0 mm 0.00 in0.0 mm 0.00 in0.0 mm
01:46 AM 71.6°F22.0°C 69.0°F20.6°C 92% Calm Calm 5.2 mph8.4 kmh 28.97 in981.0 mb 0.00 in0.0 mm 0.00 in0.0 mm 0.00 in0.0 mm
01:45 AM 71.6°F22.0°C 68.7°F20.4°C 91% Calm Calm 5.8 mph9.3 kmh 28.97 in981.0 mb 0.00 in0.0 mm 0.00 in0.0 mm 0.00 in0.0 mm
01:44 AM 71.6°F22.0°C 68.7°F20.4°C 91% Calm Calm 5.8 mph9.3 kmh 28.97 in981.0 mb 0.00 in0.0 mm 0.00 in0.0 mm 0.00 in0.0 mm
01:43 AM 71.6°F22.0°C 68.7°F20.4°C 91% Calm Calm 5.8 mph9.3 kmh 28.97 in981.0 mb 0.00 in0.0 mm 0.00 in0.0 mm 0.00 in0.0 mm
01:42 AM 71.6°F22.0°C 68.7°F20.4°C 91% Calm Calm 5.8 mph9.3 kmh 28.97 in981.0 mb 0.00 in0.0 mm 0.00 in0.0 mm 0.00 in0.0 mm
01:41 AM 71.6°F22.0°C 68.7°F20.4°C 91% Calm Calm 5.8 mph9.3 kmh 28.97 in981.0 mb 0.00 in0.0 mm 0.00 in0.0 mm 0.00 in0.0 mm
01:40 AM 71.6°F22.0°C 68.7°F20.4°C 91% 3.0 mph SW4.8 kmh SW 5.8 mph9.3 kmh 28.97 in981.0 mb 0.00 in0.0 mm 0.00 in0.0 mm 0.00 in0.0 mm
01:39 AM 71.6°F22.0°C 68.7°F20.4°C 91% 3.0 mph SW4.8 kmh SW 5.8 mph9.3 kmh 28.97 in981.0 mb 0.00 in0.0 mm 0.00 in0.0 mm 0.00 in0.0 mm
01:38 AM 71.6°F22.0°C 68.7°F20.4°C 91% 3.0 mph WSW4.8 kmh WSW 5.8 mph9.3 kmh 28.97 in981.0 mb 0.00 in0.0 mm 0.00 in0.0 mm 0.00 in0.0 mm
01:37 AM 71.8°F22.1°C 68.9°F20.5°C 91% 3.0 mph WSW4.8 kmh WSW 5.8 mph9.3 kmh 28.97 in981.0 mb 0.00 in0.0 mm 0.00 in0.0 mm 0.00 in0.0 mm
01:36 AM 71.8°F22.1°C 68.9°F20.5°C 91% 3.0 mph WSW4.8 kmh WSW 5.8 mph9.3 kmh 28.97 in981.0 mb 0.00 in0.0 mm 0.00 in0.0 mm 0.00 in0.0 mm
01:35 AM 71.8°F22.1°C 68.9°F20.5°C 91% 3.0 mph WSW4.8 kmh WSW 5.8 mph9.3 kmh 28.97 in981.0 mb 0.00 in0.0 mm 0.00 in0.0 mm 0.00 in0.0 mm
01:34 AM 71.8°F22.1°C 68.9°F20.5°C 91% 3.7 mph SW6.0 kmh SW 5.8 mph9.3 kmh 28.97 in981.0 mb 0.00 in0.0 mm 0.00 in0.0 mm 0.00 in0.0 mm
01:33 AM 71.8°F22.1°C 68.9°F20.5°C 91% 3.7 mph SW6.0 kmh SW 5.8 mph9.3 kmh 28.97 in981.0 mb 0.00 in0.0 mm 0.00 in0.0 mm 0.00 in0.0 mm
01:32 AM 71.8°F22.1°C 68.9°F20.5°C 91% Calm Calm 5.2 mph8.4 kmh 28.97 in981.0 mb 0.00 in0.0 mm 0.00 in0.0 mm 0.00 in0.0 mm
01:31 AM 71.8°F22.1°C 68.9°F20.5°C 91% Calm Calm 5.2 mph8.4 kmh 28.97 in981.0 mb 0.00 in0.0 mm 0.00 in0.0 mm 0.00 in0.0 mm
01:30 AM 71.8°F22.1°C 68.9°F20.5°C 91% Calm Calm 5.2 mph8.4 kmh 28.97 in981.0 mb 0.00 in0.0 mm 0.00 in0.0 mm 0.00 in0.0 mm
01:29 AM 71.8°F22.1°C 68.9°F20.5°C 91% Calm Calm 5.2 mph8.4 kmh 28.97 in981.0 mb 0.00 in0.0 mm 0.00 in0.0 mm 0.00 in0.0 mm
01:28 AM 71.8°F22.1°C 68.9°F20.5°C 91% Calm Calm 5.2 mph8.4 kmh 28.97 in981.0 mb 0.00 in0.0 mm 0.00 in0.0 mm 0.00 in0.0 mm
01:27 AM 71.8°F22.1°C 68.9°F20.5°C 91% 3.0 mph SW4.8 kmh SW 5.2 mph8.4 kmh 28.97 in981.0 mb 0.00 in0.0 mm 0.00 in0.0 mm 0.00 in0.0 mm
01:26 AM 71.8°F22.1°C 68.9°F20.5°C 91% 3.0 mph SW4.8 kmh SW 5.2 mph8.4 kmh 28.97 in981.0 mb 0.00 in0.0 mm 0.00 in0.0 mm 0.00 in0.0 mm
01:25 AM 71.8°F22.1°C 68.9°F20.5°C 91% 3.0 mph SW4.8 kmh SW 5.2 mph8.4 kmh 28.97 in981.0 mb 0.00 in0.0 mm 0.00 in0.0 mm 0.00 in0.0 mm
01:24 AM 72.0°F22.2°C 69.1°F20.6°C 91% Calm Calm 5.2 mph8.4 kmh 28.97 in981.0 mb 0.00 in0.0 mm 0.00 in0.0 mm 0.00 in0.0 mm
01:23 AM 71.8°F22.1°C 68.9°F20.5°C 91% Calm Calm 5.2 mph8.4 kmh 28.97 in981.0 mb 0.00 in0.0 mm 0.00 in0.0 mm 0.00 in0.0 mm
01:22 AM 71.8°F22.1°C 68.9°F20.5°C 91% 3.0 mph SW4.8 kmh SW 5.2 mph8.4 kmh 28.97 in981.0 mb 0.00 in0.0 mm 0.00 in0.0 mm 0.00 in0.0 mm
01:21 AM 72.0°F22.2°C 69.1°F20.6°C 91% 3.0 mph SW4.8 kmh SW 5.2 mph8.4 kmh 28.97 in981.0 mb 0.00 in0.0 mm 0.00 in0.0 mm 0.00 in0.0 mm
01:20 AM 72.0°F22.2°C 69.1°F20.6°C 91% 3.0 mph SW4.8 kmh SW 5.2 mph8.4 kmh 28.97 in981.0 mb 0.00 in0.0 mm 0.00 in0.0 mm 0.00 in0.0 mm
01:19 AM 72.0°F22.2°C 69.1°F20.6°C 91% Calm Calm 5.8 mph9.3 kmh 28.97 in981.0 mb 0.00 in0.0 mm 0.00 in0.0 mm 0.00 in0.0 mm
01:18 AM 72.0°F22.2°C 69.1°F20.6°C 91% Calm Calm 7.1 mph11.4 kmh 28.97 in981.0 mb 0.00 in0.0 mm 0.00 in0.0 mm 0.00 in0.0 mm
01:17 AM 72.0°F22.2°C 69.1°F20.6°C 91% Calm Calm 7.1 mph11.4 kmh 28.97 in981.0 mb 0.00 in0.0 mm 0.00 in0.0 mm 0.00 in0.0 mm
01:16 AM 72.0°F22.2°C 68.7°F20.4°C 89% Calm Calm 7.1 mph11.4 kmh 28.97 in981.0 mb 0.00 in0.0 mm 0.00 in0.0 mm 0.00 in0.0 mm
01:15 AM 72.0°F22.2°C 68.7°F20.4°C 89% Calm Calm 7.8 mph12.6 kmh 28.97 in981.0 mb 0.00 in0.0 mm 0.00 in0.0 mm 0.00 in0.0 mm
01:14 AM 72.0°F22.2°C 68.7°F20.4°C 89% Calm Calm 7.8 mph12.6 kmh 28.97 in981.0 mb 0.00 in0.0 mm 0.00 in0.0 mm 0.00 in0.0 mm
01:13 AM 72.0°F22.2°C 68.7°F20.4°C 89% 3.0 mph WSW4.8 kmh WSW 7.8 mph12.6 kmh 28.97 in981.0 mb 0.00 in0.0 mm 0.00 in0.0 mm 0.00 in0.0 mm
01:12 AM 72.0°F22.2°C 68.7°F20.4°C 89% 3.2 mph WSW5.1 kmh WSW 7.8 mph12.6 kmh 28.97 in981.0 mb 0.00 in0.0 mm 0.00 in0.0 mm 0.00 in0.0 mm
01:11 AM 72.0°F22.2°C 68.7°F20.4°C 89% 3.4 mph WSW5.5 kmh WSW 8.4 mph13.5 kmh 28.97 in981.0 mb 0.00 in0.0 mm 0.00 in0.0 mm 0.00 in0.0 mm
01:10 AM 72.0°F22.2°C 68.7°F20.4°C 89% 4.3 mph WSW6.9 kmh WSW 8.4 mph13.5 kmh 28.97 in981.0 mb 0.00 in0.0 mm 0.00 in0.0 mm 0.00 in0.0 mm
01:09 AM 72.0°F22.2°C 68.7°F20.4°C 89% 4.9 mph WSW7.9 kmh WSW 8.4 mph13.5 kmh 28.97 in981.0 mb 0.00 in0.0 mm 0.00 in0.0 mm 0.00 in0.0 mm
01:08 AM 72.0°F22.2°C 68.7°F20.4°C 89% 3.7 mph SW6.0 kmh SW 8.4 mph13.5 kmh 28.97 in981.0 mb 0.00 in0.0 mm 0.00 in0.0 mm 0.00 in0.0 mm
01:07 AM 72.0°F22.2°C 68.7°F20.4°C 89% 4.0 mph SW6.4 kmh SW 8.4 mph13.5 kmh 28.97 in981.0 mb 0.00 in0.0 mm 0.00 in0.0 mm 0.00 in0.0 mm
01:06 AM 72.0°F22.2°C 68.7°F20.4°C 89% 3.6 mph SW5.8 kmh SW 8.4 mph13.5 kmh 28.97 in981.0 mb 0.00 in0.0 mm 0.00 in0.0 mm 0.00 in0.0 mm
01:05 AM 72.0°F22.2°C 68.7°F20.4°C 89% 3.3 mph SW5.3 kmh SW 8.4 mph13.5 kmh 28.97 in981.0 mb 0.00 in0.0 mm 0.00 in0.0 mm 0.00 in0.0 mm
01:04 AM 72.0°F22.2°C 68.7°F20.4°C 89% 3.7 mph SW6.0 kmh SW 8.4 mph13.5 kmh 28.97 in981.0 mb 0.00 in0.0 mm 0.00 in0.0 mm 0.00 in0.0 mm
01:03 AM 72.0°F22.2°C 68.7°F20.4°C 89% 3.7 mph SW6.0 kmh SW 8.4 mph13.5 kmh 28.97 in981.0 mb 0.00 in0.0 mm 0.00 in0.0 mm 0.00 in0.0 mm
01:02 AM 72.0°F22.2°C 68.7°F20.4°C 89% 3.7 mph SW6.0 kmh SW 8.4 mph13.5 kmh 28.97 in981.0 mb 0.00 in0.0 mm 0.00 in0.0 mm 0.00 in0.0 mm
01:01 AM 72.0°F22.2°C 68.7°F20.4°C 89% 3.0 mph SW4.8 kmh SW 5.8 mph9.3 kmh 28.97 in981.0 mb 0.00 in0.0 mm 0.00 in0.0 mm 0.00 in0.0 mm
01:00 AM 72.0°F22.2°C 68.7°F20.4°C 89% 3.0 mph SW4.8 kmh SW 5.8 mph9.3 kmh 28.97 in981.0 mb 0.00 in0.0 mm 0.00 in0.0 mm 0.00 in0.0 mm
12:59 AM 72.0°F22.2°C 68.7°F20.4°C 89% 3.0 mph SW4.8 kmh SW 5.8 mph9.3 kmh 28.97 in981.0 mb 0.00 in0.0 mm 0.00 in0.0 mm 0.00 in0.0 mm
12:58 AM 72.0°F22.2°C 68.7°F20.4°C 89% Calm Calm 5.8 mph9.3 kmh 28.97 in981.0 mb 0.00 in0.0 mm 0.00 in0.0 mm 0.00 in0.0 mm
12:57 AM 72.0°F22.2°C 68.7°F20.4°C 89% Calm Calm 5.8 mph9.3 kmh 28.97 in981.0 mb 0.00 in0.0 mm 0.00 in0.0 mm 0.00 in0.0 mm
12:56 AM 71.8°F22.1°C 68.5°F20.3°C 89% Calm Calm 5.8 mph9.3 kmh 28.97 in981.0 mb 0.00 in0.0 mm 0.00 in0.0 mm 0.00 in0.0 mm
12:55 AM 71.8°F22.1°C 68.5°F20.3°C 89% Calm Calm 5.8 mph9.3 kmh 28.97 in981.0 mb 0.00 in0.0 mm 0.00 in0.0 mm 0.00 in0.0 mm
12:54 AM 71.8°F22.1°C 68.1°F20.1°C 88% Calm Calm 5.8 mph9.3 kmh 28.97 in981.0 mb 0.00 in0.0 mm 0.00 in0.0 mm 0.00 in0.0 mm
12:53 AM 71.8°F22.1°C 68.1°F20.1°C 88% Calm Calm 5.8 mph9.3 kmh 28.97 in981.0 mb 0.00 in0.0 mm 0.00 in0.0 mm 0.00 in0.0 mm
12:52 AM 71.8°F22.1°C 68.1°F20.1°C 88% Calm Calm 5.8 mph9.3 kmh 28.97 in981.0 mb 0.00 in0.0 mm 0.00 in0.0 mm 0.00 in0.0 mm
12:51 AM 71.8°F22.1°C 68.1°F20.1°C 88% Calm Calm 5.8 mph9.3 kmh 28.97 in981.0 mb 0.00 in0.0 mm 0.00 in0.0 mm 0.00 in0.0 mm
12:50 AM 71.8°F22.1°C 68.1°F20.1°C 88% Calm Calm 3.9 mph6.3 kmh 28.97 in981.0 mb 0.00 in0.0 mm 0.00 in0.0 mm 0.00 in0.0 mm
12:49 AM 71.8°F22.1°C 68.1°F20.1°C 88% Calm Calm -- 28.97 in981.0 mb 0.00 in0.0 mm 0.00 in0.0 mm 0.00 in0.0 mm
12:48 AM 71.8°F22.1°C 68.1°F20.1°C 88% Calm Calm -- 28.97 in981.0 mb 0.00 in0.0 mm 0.00 in0.0 mm 0.00 in0.0 mm
12:47 AM 71.8°F22.1°C 68.1°F20.1°C 88% Calm Calm -- 28.97 in981.0 mb 0.00 in0.0 mm 0.00 in0.0 mm 0.00 in0.0 mm
12:46 AM 71.8°F22.1°C 68.1°F20.1°C 88% Calm Calm -- 28.97 in981.0 mb 0.00 in0.0 mm 0.00 in0.0 mm 0.00 in0.0 mm
12:45 AM 71.8°F22.1°C 68.1°F20.1°C 88% Calm Calm -- 28.97 in981.0 mb 0.00 in0.0 mm 0.00 in0.0 mm 0.00 in0.0 mm
12:44 AM 71.8°F22.1°C 68.1°F20.1°C 88% Calm Calm -- 28.97 in981.0 mb 0.00 in0.0 mm 0.00 in0.0 mm 0.00 in0.0 mm
12:43 AM 71.8°F22.1°C 68.1°F20.1°C 88% Calm Calm -- 28.97 in981.0 mb 0.00 in0.0 mm 0.00 in0.0 mm 0.00 in0.0 mm
12:42 AM 71.8°F22.1°C 68.1°F20.1°C 88% Calm Calm -- 28.97 in981.0 mb 0.00 in0.0 mm 0.00 in0.0 mm 0.00 in0.0 mm
12:41 AM 71.8°F22.1°C 68.1°F20.1°C 88% Calm Calm -- 28.97 in981.0 mb 0.00 in0.0 mm 0.00 in0.0 mm 0.00 in0.0 mm
12:40 AM 71.8°F22.1°C 68.1°F20.1°C 88% Calm Calm -- 28.97 in981.0 mb 0.00 in0.0 mm 0.00 in0.0 mm 0.00 in0.0 mm
12:39 AM 71.6°F22.0°C 68.0°F20.0°C 88% Calm Calm -- 28.97 in981.0 mb 0.00 in0.0 mm 0.00 in0.0 mm 0.00 in0.0 mm
12:38 AM 71.6°F22.0°C 68.0°F20.0°C 88% Calm Calm -- 28.97 in981.0 mb 0.00 in0.0 mm 0.00 in0.0 mm 0.00 in0.0 mm
12:37 AM 71.6°F22.0°C 68.0°F20.0°C 88% Calm Calm -- 28.97 in981.0 mb 0.00 in0.0 mm 0.00 in0.0 mm 0.00 in0.0 mm
12:36 AM 71.6°F22.0°C 68.0°F20.0°C 88% Calm Calm -- 28.97 in981.0 mb 0.00 in0.0 mm 0.00 in0.0 mm 0.00 in0.0 mm
12:35 AM 71.6°F22.0°C 68.0°F20.0°C 88% Calm Calm -- 28.97 in981.0 mb 0.00 in0.0 mm 0.00 in0.0 mm 0.00 in0.0 mm
12:34 AM 71.6°F22.0°C 68.0°F20.0°C 88% Calm Calm -- 28.97 in981.0 mb 0.00 in0.0 mm 0.00 in0.0 mm 0.00 in0.0 mm
12:33 AM 71.6°F22.0°C 68.0°F20.0°C 88% Calm Calm -- 28.97 in981.0 mb 0.00 in0.0 mm 0.00 in0.0 mm 0.00 in0.0 mm
12:32 AM 71.6°F22.0°C 68.0°F20.0°C 88% Calm Calm -- 28.97 in981.0 mb 0.00 in0.0 mm 0.00 in0.0 mm 0.00 in0.0 mm
12:31 AM 71.6°F22.0°C 68.0°F20.0°C 88% Calm Calm -- 28.97 in981.0 mb 0.00 in0.0 mm 0.00 in0.0 mm 0.00 in0.0 mm
12:30 AM 71.6°F22.0°C 68.0°F20.0°C 88% Calm Calm -- 28.97 in981.0 mb 0.00 in0.0 mm 0.00 in0.0 mm 0.00 in0.0 mm
12:29 AM 71.6°F22.0°C 68.0°F20.0°C 88% Calm Calm -- 28.97 in981.0 mb 0.00 in0.0 mm 0.00 in0.0 mm 0.00 in0.0 mm
12:28 AM 71.6°F22.0°C 68.0°F20.0°C 88% Calm Calm -- 28.97 in981.0 mb 0.00 in0.0 mm 0.00 in0.0 mm 0.00 in0.0 mm
12:27 AM 71.6°F22.0°C 67.6°F19.8°C 87% Calm Calm -- 28.97 in981.0 mb 0.00 in0.0 mm 0.00 in0.0 mm 0.00 in0.0 mm
12:26 AM 71.6°F22.0°C 67.6°F19.8°C 87% Calm Calm -- 28.97 in981.0 mb 0.00 in0.0 mm 0.00 in0.0 mm 0.00 in0.0 mm
12:25 AM 71.6°F22.0°C 67.6°F19.8°C 87% Calm Calm -- 28.97 in981.0 mb 0.00 in0.0 mm 0.00 in0.0 mm 0.00 in0.0 mm
12:24 AM 71.6°F22.0°C 67.6°F19.8°C 87% Calm Calm -- 28.97 in981.0 mb 0.00 in0.0 mm 0.00 in0.0 mm 0.00 in0.0 mm
12:23 AM 71.6°F22.0°C 67.6°F19.8°C 87% Calm Calm -- 28.97 in981.0 mb 0.00 in0.0 mm 0.00 in0.0 mm 0.00 in0.0 mm
12:22 AM 71.6°F22.0°C 67.6°F19.8°C 87% Calm Calm -- 28.97 in981.0 mb 0.00 in0.0 mm 0.00 in0.0 mm 0.00 in0.0 mm
12:21 AM 71.6°F22.0°C 67.6°F19.8°C 87% Calm Calm -- 28.97 in981.0 mb 0.00 in0.0 mm 0.00 in0.0 mm 0.00 in0.0 mm
12:20 AM 71.6°F22.0°C 67.6°F19.8°C 87% Calm Calm -- 28.97 in981.0 mb 0.00 in0.0 mm 0.00 in0.0 mm 0.00 in0.0 mm
12:19 AM 71.6°F22.0°C 67.6°F19.8°C 87% Calm Calm 3.2 mph5.1 kmh 28.97 in981.0 mb 0.00 in0.0 mm 0.00 in0.0 mm 0.00 in0.0 mm
12:18 AM 71.6°F22.0°C 67.6°F19.8°C 87% Calm Calm 3.9 mph6.3 kmh 28.97 in981.0 mb 0.00 in0.0 mm 0.00 in0.0 mm 0.00 in0.0 mm
12:17 AM 71.6°F22.0°C 67.6°F19.8°C 87% Calm Calm 3.9 mph6.3 kmh 28.97 in981.0 mb 0.00 in0.0 mm 0.00 in0.0 mm 0.00 in0.0 mm
12:16 AM 71.6°F22.0°C 67.6°F19.8°C 87% Calm Calm 3.9 mph6.3 kmh 28.97 in981.0 mb 0.00 in0.0 mm 0.00 in0.0 mm 0.00 in0.0 mm
12:15 AM 71.6°F22.0°C 67.6°F19.8°C 87% Calm Calm 3.9 mph6.3 kmh 28.97 in981.0 mb 0.00 in0.0 mm 0.00 in0.0 mm 0.00 in0.0 mm
12:14 AM 71.4°F21.9°C 67.4°F19.7°C 87% Calm Calm 3.9 mph6.3 kmh 28.97 in981.0 mb 0.00 in0.0 mm 0.00 in0.0 mm 0.00 in0.0 mm
12:13 AM 71.4°F21.9°C 67.4°F19.7°C 87% Calm Calm 3.9 mph6.3 kmh 28.97 in981.0 mb 0.00 in0.0 mm 0.00 in0.0 mm 0.00 in0.0 mm
12:12 AM 71.4°F21.9°C 67.4°F19.7°C 87% Calm Calm 3.9 mph6.3 kmh 28.97 in981.0 mb 0.00 in0.0 mm 0.00 in0.0 mm 0.00 in0.0 mm
12:11 AM 71.4°F21.9°C 67.4°F19.7°C 87% Calm Calm 3.9 mph6.3 kmh 28.97 in981.0 mb 0.00 in0.0 mm 0.00 in0.0 mm 0.00 in0.0 mm
12:10 AM 71.4°F21.9°C 67.4°F19.7°C 87% Calm Calm 3.9 mph6.3 kmh 28.97 in981.0 mb 0.00 in0.0 mm 0.00 in0.0 mm 0.00 in0.0 mm
12:09 AM 71.6°F22.0°C 67.2°F19.6°C 86% Calm Calm 3.9 mph6.3 kmh 28.97 in981.0 mb 0.00 in0.0 mm 0.00 in0.0 mm 0.00 in0.0 mm
12:08 AM 71.6°F22.0°C 67.2°F19.6°C 86% Calm Calm -- 28.97 in981.0 mb 0.00 in0.0 mm 0.00 in0.0 mm 0.00 in0.0 mm
12:07 AM 71.6°F22.0°C 67.2°F19.6°C 86% Calm Calm -- 28.97 in981.0 mb 0.00 in0.0 mm 0.00 in0.0 mm 0.00 in0.0 mm
12:06 AM 71.6°F22.0°C 67.2°F19.6°C 86% Calm Calm -- 28.97 in981.0 mb 0.00 in0.0 mm 0.00 in0.0 mm 0.00 in0.0 mm
12:05 AM 71.6°F22.0°C 67.2°F19.6°C 86% Calm Calm -- 28.97 in981.0 mb 0.00 in0.0 mm 0.00 in0.0 mm 0.00 in0.0 mm
12:04 AM 71.6°F22.0°C 67.2°F19.6°C 86% Calm Calm -- 28.97 in981.0 mb 0.00 in0.0 mm 0.00 in0.0 mm 0.00 in0.0 mm
12:03 AM 71.8°F22.1°C 67.4°F19.7°C 86% Calm Calm -- 28.97 in981.0 mb 0.00 in0.0 mm 0.00 in0.0 mm 0.00 in0.0 mm
12:02 AM 71.8°F22.1°C 67.4°F19.7°C 86% Calm Calm -- 28.97 in981.0 mb 0.00 in0.0 mm 0.00 in0.0 mm 0.00 in0.0 mm
12:01 AM 71.8°F22.1°C 67.4°F19.7°C 86% Calm Calm -- 28.97 in981.0 mb 0.00 in0.0 mm 0.00 in0.0 mm 0.00 in0.0 mm
12:00 AM 71.8°F22.1°C 67.4°F19.7°C 86% Calm Calm -- 28.97 in981.0 mb 0.00 in0.0 mm 0.00 in0.0 mm 0.00 in0.0 mm